<?xml version="1.0" encoding="UTF-8" standalone="no" ?>
<gpx xmlns="http://www.topografix.com/GPX/1/1" xmlns:xsi="http://www.w3.org/2001/XMLSchema-instance" xsi:schemaLocation="http://www.topografix.com/GPX/1/1 http://www.topografix.com/GPX/1/1/gpx.xsd" version="1.1" creator="VisuGPX - https://www.visugpx.com">
  <metadata>
    <name>Saint_Aubin_luigne</name>
    <desc><![CDATA[Boucle autour de St Aubin de Luigne]]></desc>
  </metadata>
  <trk>
    <name><![CDATA[AVR-04-10 11:45:18 AM]]></name>
    <trkseg>
      <trkpt lat="47.29886" lon="-0.65354">
        <ele>71.76</ele>
        <time>2010-04-04T08:25:33Z</time>
      </trkpt>
      <trkpt lat="47.29886" lon="-0.65354">
        <ele>71.76</ele>
        <time>2010-04-04T08:25:39Z</time>
      </trkpt>
      <trkpt lat="47.29887" lon="-0.65352">
        <ele>75.12</ele>
        <time>2010-04-04T08:30:31Z</time>
      </trkpt>
      <trkpt lat="47.29888" lon="-0.65354">
        <ele>72.24</ele>
        <time>2010-04-04T08:31:52Z</time>
      </trkpt>
      <trkpt lat="47.29891" lon="-0.65351">
        <ele>71.76</ele>
        <time>2010-04-04T08:31:54Z</time>
      </trkpt>
      <trkpt lat="47.29894" lon="-0.6534">
        <ele>70.31</ele>
        <time>2010-04-04T08:32:02Z</time>
      </trkpt>
      <trkpt lat="47.29907" lon="-0.6534">
        <ele>69.83</ele>
        <time>2010-04-04T08:32:20Z</time>
      </trkpt>
      <trkpt lat="47.29939" lon="-0.65344">
        <ele>68.87</ele>
        <time>2010-04-04T08:32:30Z</time>
      </trkpt>
      <trkpt lat="47.29955" lon="-0.65374">
        <ele>68.39</ele>
        <time>2010-04-04T08:32:37Z</time>
      </trkpt>
      <trkpt lat="47.29976" lon="-0.65399">
        <ele>67.91</ele>
        <time>2010-04-04T08:32:44Z</time>
      </trkpt>
      <trkpt lat="47.29984" lon="-0.65405">
        <ele>67.91</ele>
        <time>2010-04-04T08:32:46Z</time>
      </trkpt>
      <trkpt lat="47.29998" lon="-0.6542">
        <ele>66.95</ele>
        <time>2010-04-04T08:32:50Z</time>
      </trkpt>
      <trkpt lat="47.30001" lon="-0.65425">
        <ele>66.95</ele>
        <time>2010-04-04T08:32:51Z</time>
      </trkpt>
      <trkpt lat="47.30027" lon="-0.65469">
        <ele>65.51</ele>
        <time>2010-04-04T08:32:59Z</time>
      </trkpt>
      <trkpt lat="47.30031" lon="-0.65473">
        <ele>65.51</ele>
        <time>2010-04-04T08:33:00Z</time>
      </trkpt>
      <trkpt lat="47.30063" lon="-0.65511">
        <ele>65.51</ele>
        <time>2010-04-04T08:33:09Z</time>
      </trkpt>
      <trkpt lat="47.30066" lon="-0.65515">
        <ele>65.51</ele>
        <time>2010-04-04T08:33:10Z</time>
      </trkpt>
      <trkpt lat="47.30071" lon="-0.65517">
        <ele>65.03</ele>
        <time>2010-04-04T08:33:11Z</time>
      </trkpt>
      <trkpt lat="47.30075" lon="-0.65518">
        <ele>64.55</ele>
        <time>2010-04-04T08:33:12Z</time>
      </trkpt>
      <trkpt lat="47.3008" lon="-0.65518">
        <ele>64.55</ele>
        <time>2010-04-04T08:33:13Z</time>
      </trkpt>
      <trkpt lat="47.30085" lon="-0.65517">
        <ele>64.55</ele>
        <time>2010-04-04T08:33:14Z</time>
      </trkpt>
      <trkpt lat="47.3009" lon="-0.65515">
        <ele>64.07</ele>
        <time>2010-04-04T08:33:15Z</time>
      </trkpt>
      <trkpt lat="47.30148" lon="-0.65496">
        <ele>62.14</ele>
        <time>2010-04-04T08:33:25Z</time>
      </trkpt>
      <trkpt lat="47.30217" lon="-0.65478">
        <ele>59.26</ele>
        <time>2010-04-04T08:33:35Z</time>
      </trkpt>
      <trkpt lat="47.30278" lon="-0.65478">
        <ele>59.26</ele>
        <time>2010-04-04T08:33:45Z</time>
      </trkpt>
      <trkpt lat="47.30338" lon="-0.65454">
        <ele>58.3</ele>
        <time>2010-04-04T08:33:56Z</time>
      </trkpt>
      <trkpt lat="47.30343" lon="-0.65452">
        <ele>58.3</ele>
        <time>2010-04-04T08:33:57Z</time>
      </trkpt>
      <trkpt lat="47.30348" lon="-0.6545">
        <ele>58.3</ele>
        <time>2010-04-04T08:33:58Z</time>
      </trkpt>
      <trkpt lat="47.3037" lon="-0.65439">
        <ele>57.34</ele>
        <time>2010-04-04T08:34:03Z</time>
      </trkpt>
      <trkpt lat="47.30374" lon="-0.65436">
        <ele>57.34</ele>
        <time>2010-04-04T08:34:04Z</time>
      </trkpt>
      <trkpt lat="47.30394" lon="-0.65429">
        <ele>56.37</ele>
        <time>2010-04-04T08:34:08Z</time>
      </trkpt>
      <trkpt lat="47.30398" lon="-0.65426">
        <ele>56.37</ele>
        <time>2010-04-04T08:34:09Z</time>
      </trkpt>
      <trkpt lat="47.30418" lon="-0.65417">
        <ele>56.37</ele>
        <time>2010-04-04T08:34:13Z</time>
      </trkpt>
      <trkpt lat="47.30438" lon="-0.65405">
        <ele>55.89</ele>
        <time>2010-04-04T08:34:17Z</time>
      </trkpt>
      <trkpt lat="47.30472" lon="-0.65384">
        <ele>54.93</ele>
        <time>2010-04-04T08:34:24Z</time>
      </trkpt>
      <trkpt lat="47.30496" lon="-0.65377">
        <ele>55.41</ele>
        <time>2010-04-04T08:34:29Z</time>
      </trkpt>
      <trkpt lat="47.30528" lon="-0.65376">
        <ele>56.86</ele>
        <time>2010-04-04T08:34:36Z</time>
      </trkpt>
      <trkpt lat="47.30573" lon="-0.6538">
        <ele>56.86</ele>
        <time>2010-04-04T08:34:46Z</time>
      </trkpt>
      <trkpt lat="47.30582" lon="-0.65384">
        <ele>57.34</ele>
        <time>2010-04-04T08:34:48Z</time>
      </trkpt>
      <trkpt lat="47.30591" lon="-0.6539">
        <ele>56.86</ele>
        <time>2010-04-04T08:34:50Z</time>
      </trkpt>
      <trkpt lat="47.30595" lon="-0.65393">
        <ele>56.86</ele>
        <time>2010-04-04T08:34:51Z</time>
      </trkpt>
      <trkpt lat="47.30601" lon="-0.65395">
        <ele>56.37</ele>
        <time>2010-04-04T08:34:52Z</time>
      </trkpt>
      <trkpt lat="47.30606" lon="-0.65395">
        <ele>55.89</ele>
        <time>2010-04-04T08:34:53Z</time>
      </trkpt>
      <trkpt lat="47.30611" lon="-0.65395">
        <ele>55.89</ele>
        <time>2010-04-04T08:34:54Z</time>
      </trkpt>
      <trkpt lat="47.30616" lon="-0.65394">
        <ele>55.89</ele>
        <time>2010-04-04T08:34:55Z</time>
      </trkpt>
      <trkpt lat="47.30621" lon="-0.65392">
        <ele>55.89</ele>
        <time>2010-04-04T08:34:56Z</time>
      </trkpt>
      <trkpt lat="47.30626" lon="-0.65389">
        <ele>56.37</ele>
        <time>2010-04-04T08:34:57Z</time>
      </trkpt>
      <trkpt lat="47.30643" lon="-0.65377">
        <ele>56.86</ele>
        <time>2010-04-04T08:35:01Z</time>
      </trkpt>
      <trkpt lat="47.30647" lon="-0.65374">
        <ele>56.86</ele>
        <time>2010-04-04T08:35:02Z</time>
      </trkpt>
      <trkpt lat="47.30691" lon="-0.65319">
        <ele>58.3</ele>
        <time>2010-04-04T08:35:14Z</time>
      </trkpt>
      <trkpt lat="47.30722" lon="-0.65284">
        <ele>59.26</ele>
        <time>2010-04-04T08:35:22Z</time>
      </trkpt>
      <trkpt lat="47.30726" lon="-0.65281">
        <ele>59.26</ele>
        <time>2010-04-04T08:35:23Z</time>
      </trkpt>
      <trkpt lat="47.3073" lon="-0.6528">
        <ele>59.26</ele>
        <time>2010-04-04T08:35:24Z</time>
      </trkpt>
      <trkpt lat="47.30734" lon="-0.65281">
        <ele>59.26</ele>
        <time>2010-04-04T08:35:25Z</time>
      </trkpt>
      <trkpt lat="47.30737" lon="-0.65282">
        <ele>59.26</ele>
        <time>2010-04-04T08:35:26Z</time>
      </trkpt>
      <trkpt lat="47.30739" lon="-0.65284">
        <ele>58.78</ele>
        <time>2010-04-04T08:35:27Z</time>
      </trkpt>
      <trkpt lat="47.30741" lon="-0.65286">
        <ele>58.78</ele>
        <time>2010-04-04T08:35:28Z</time>
      </trkpt>
      <trkpt lat="47.30743" lon="-0.65288">
        <ele>58.78</ele>
        <time>2010-04-04T08:35:29Z</time>
      </trkpt>
      <trkpt lat="47.30759" lon="-0.65302">
        <ele>57.82</ele>
        <time>2010-04-04T08:35:36Z</time>
      </trkpt>
      <trkpt lat="47.30761" lon="-0.65299">
        <ele>57.34</ele>
        <time>2010-04-04T08:35:37Z</time>
      </trkpt>
      <trkpt lat="47.30783" lon="-0.65285">
        <ele>58.3</ele>
        <time>2010-04-04T08:35:44Z</time>
      </trkpt>
      <trkpt lat="47.30814" lon="-0.65287">
        <ele>58.78</ele>
        <time>2010-04-04T08:35:53Z</time>
      </trkpt>
      <trkpt lat="47.30856" lon="-0.65288">
        <ele>60.22</ele>
        <time>2010-04-04T08:36:05Z</time>
      </trkpt>
      <trkpt lat="47.3089" lon="-0.65276">
        <ele>59.74</ele>
        <time>2010-04-04T08:36:14Z</time>
      </trkpt>
      <trkpt lat="47.30935" lon="-0.65248">
        <ele>57.34</ele>
        <time>2010-04-04T08:36:23Z</time>
      </trkpt>
      <trkpt lat="47.30941" lon="-0.65246">
        <ele>56.86</ele>
        <time>2010-04-04T08:36:24Z</time>
      </trkpt>
      <trkpt lat="47.30947" lon="-0.65248">
        <ele>56.37</ele>
        <time>2010-04-04T08:36:25Z</time>
      </trkpt>
      <trkpt lat="47.30953" lon="-0.65253">
        <ele>55.89</ele>
        <time>2010-04-04T08:36:26Z</time>
      </trkpt>
      <trkpt lat="47.30959" lon="-0.65259">
        <ele>55.41</ele>
        <time>2010-04-04T08:36:27Z</time>
      </trkpt>
      <trkpt lat="47.30965" lon="-0.65265">
        <ele>54.93</ele>
        <time>2010-04-04T08:36:28Z</time>
      </trkpt>
      <trkpt lat="47.30971" lon="-0.65271">
        <ele>54.45</ele>
        <time>2010-04-04T08:36:29Z</time>
      </trkpt>
      <trkpt lat="47.30977" lon="-0.65277">
        <ele>53.49</ele>
        <time>2010-04-04T08:36:30Z</time>
      </trkpt>
      <trkpt lat="47.30984" lon="-0.65282">
        <ele>52.53</ele>
        <time>2010-04-04T08:36:31Z</time>
      </trkpt>
      <trkpt lat="47.3099" lon="-0.65285">
        <ele>52.05</ele>
        <time>2010-04-04T08:36:32Z</time>
      </trkpt>
      <trkpt lat="47.30997" lon="-0.65286">
        <ele>51.57</ele>
        <time>2010-04-04T08:36:33Z</time>
      </trkpt>
      <trkpt lat="47.31003" lon="-0.65285">
        <ele>51.09</ele>
        <time>2010-04-04T08:36:34Z</time>
      </trkpt>
      <trkpt lat="47.3101" lon="-0.65281">
        <ele>50.61</ele>
        <time>2010-04-04T08:36:35Z</time>
      </trkpt>
      <trkpt lat="47.31017" lon="-0.65277">
        <ele>50.13</ele>
        <time>2010-04-04T08:36:36Z</time>
      </trkpt>
      <trkpt lat="47.31024" lon="-0.65274">
        <ele>49.16</ele>
        <time>2010-04-04T08:36:37Z</time>
      </trkpt>
      <trkpt lat="47.31101" lon="-0.65231">
        <ele>41.47</ele>
        <time>2010-04-04T08:36:47Z</time>
      </trkpt>
      <trkpt lat="47.3112" lon="-0.65218">
        <ele>39.55</ele>
        <time>2010-04-04T08:36:50Z</time>
      </trkpt>
      <trkpt lat="47.31126" lon="-0.65215">
        <ele>39.07</ele>
        <time>2010-04-04T08:36:51Z</time>
      </trkpt>
      <trkpt lat="47.31132" lon="-0.65213">
        <ele>38.59</ele>
        <time>2010-04-04T08:36:52Z</time>
      </trkpt>
      <trkpt lat="47.31137" lon="-0.65212">
        <ele>38.11</ele>
        <time>2010-04-04T08:36:53Z</time>
      </trkpt>
      <trkpt lat="47.31144" lon="-0.65214">
        <ele>37.63</ele>
        <time>2010-04-04T08:36:54Z</time>
      </trkpt>
      <trkpt lat="47.31151" lon="-0.65217">
        <ele>37.63</ele>
        <time>2010-04-04T08:36:55Z</time>
      </trkpt>
      <trkpt lat="47.31157" lon="-0.6522">
        <ele>37.15</ele>
        <time>2010-04-04T08:36:56Z</time>
      </trkpt>
      <trkpt lat="47.31234" lon="-0.65254">
        <ele>32.82</ele>
        <time>2010-04-04T08:37:06Z</time>
      </trkpt>
      <trkpt lat="47.3127" lon="-0.65272">
        <ele>33.3</ele>
        <time>2010-04-04T08:37:11Z</time>
      </trkpt>
      <trkpt lat="47.31274" lon="-0.65277">
        <ele>33.3</ele>
        <time>2010-04-04T08:37:12Z</time>
      </trkpt>
      <trkpt lat="47.31281" lon="-0.65287">
        <ele>34.26</ele>
        <time>2010-04-04T08:37:14Z</time>
      </trkpt>
      <trkpt lat="47.31283" lon="-0.65293">
        <ele>34.26</ele>
        <time>2010-04-04T08:37:15Z</time>
      </trkpt>
      <trkpt lat="47.31284" lon="-0.65299">
        <ele>34.74</ele>
        <time>2010-04-04T08:37:16Z</time>
      </trkpt>
      <trkpt lat="47.31288" lon="-0.65334">
        <ele>36.19</ele>
        <time>2010-04-04T08:37:22Z</time>
      </trkpt>
      <trkpt lat="47.31284" lon="-0.65372">
        <ele>38.59</ele>
        <time>2010-04-04T08:37:30Z</time>
      </trkpt>
      <trkpt lat="47.31273" lon="-0.65411">
        <ele>40.99</ele>
        <time>2010-04-04T08:37:41Z</time>
      </trkpt>
      <trkpt lat="47.31261" lon="-0.65451">
        <ele>42.92</ele>
        <time>2010-04-04T08:37:52Z</time>
      </trkpt>
      <trkpt lat="47.31258" lon="-0.65488">
        <ele>44.84</ele>
        <time>2010-04-04T08:38:03Z</time>
      </trkpt>
      <trkpt lat="47.31269" lon="-0.65514">
        <ele>46.28</ele>
        <time>2010-04-04T08:38:12Z</time>
      </trkpt>
      <trkpt lat="47.31296" lon="-0.65546">
        <ele>49.16</ele>
        <time>2010-04-04T08:38:26Z</time>
      </trkpt>
      <trkpt lat="47.31321" lon="-0.65573">
        <ele>50.13</ele>
        <time>2010-04-04T08:38:37Z</time>
      </trkpt>
      <trkpt lat="47.31349" lon="-0.65599">
        <ele>51.57</ele>
        <time>2010-04-04T08:38:48Z</time>
      </trkpt>
      <trkpt lat="47.31382" lon="-0.65622">
        <ele>52.53</ele>
        <time>2010-04-04T08:39:00Z</time>
      </trkpt>
      <trkpt lat="47.3142" lon="-0.65651">
        <ele>53.01</ele>
        <time>2010-04-04T08:39:14Z</time>
      </trkpt>
      <trkpt lat="47.31448" lon="-0.6569">
        <ele>52.53</ele>
        <time>2010-04-04T08:39:26Z</time>
      </trkpt>
      <trkpt lat="47.31455" lon="-0.65703">
        <ele>52.05</ele>
        <time>2010-04-04T08:39:30Z</time>
      </trkpt>
      <trkpt lat="47.31456" lon="-0.65706">
        <ele>52.05</ele>
        <time>2010-04-04T08:39:31Z</time>
      </trkpt>
      <trkpt lat="47.31458" lon="-0.65708">
        <ele>52.05</ele>
        <time>2010-04-04T08:39:32Z</time>
      </trkpt>
      <trkpt lat="47.3146" lon="-0.6571">
        <ele>52.05</ele>
        <time>2010-04-04T08:39:33Z</time>
      </trkpt>
      <trkpt lat="47.31462" lon="-0.65713">
        <ele>52.05</ele>
        <time>2010-04-04T08:39:34Z</time>
      </trkpt>
      <trkpt lat="47.31465" lon="-0.65717">
        <ele>52.05</ele>
        <time>2010-04-04T08:39:36Z</time>
      </trkpt>
      <trkpt lat="47.31466" lon="-0.6572">
        <ele>52.05</ele>
        <time>2010-04-04T08:39:37Z</time>
      </trkpt>
      <trkpt lat="47.31467" lon="-0.65722">
        <ele>52.05</ele>
        <time>2010-04-04T08:39:38Z</time>
      </trkpt>
      <trkpt lat="47.31469" lon="-0.65724">
        <ele>51.57</ele>
        <time>2010-04-04T08:39:39Z</time>
      </trkpt>
      <trkpt lat="47.31471" lon="-0.65727">
        <ele>51.57</ele>
        <time>2010-04-04T08:39:40Z</time>
      </trkpt>
      <trkpt lat="47.31492" lon="-0.65744">
        <ele>50.61</ele>
        <time>2010-04-04T08:39:47Z</time>
      </trkpt>
      <trkpt lat="47.31495" lon="-0.65748">
        <ele>50.61</ele>
        <time>2010-04-04T08:39:48Z</time>
      </trkpt>
      <trkpt lat="47.31497" lon="-0.65753">
        <ele>50.61</ele>
        <time>2010-04-04T08:39:49Z</time>
      </trkpt>
      <trkpt lat="47.31514" lon="-0.65811">
        <ele>52.05</ele>
        <time>2010-04-04T08:40:01Z</time>
      </trkpt>
      <trkpt lat="47.3153" lon="-0.65864">
        <ele>53.97</ele>
        <time>2010-04-04T08:40:12Z</time>
      </trkpt>
      <trkpt lat="47.31534" lon="-0.65884">
        <ele>54.45</ele>
        <time>2010-04-04T08:40:16Z</time>
      </trkpt>
      <trkpt lat="47.31533" lon="-0.65889">
        <ele>54.93</ele>
        <time>2010-04-04T08:40:17Z</time>
      </trkpt>
      <trkpt lat="47.31532" lon="-0.65925">
        <ele>54.93</ele>
        <time>2010-04-04T08:40:25Z</time>
      </trkpt>
      <trkpt lat="47.31539" lon="-0.65962">
        <ele>54.45</ele>
        <time>2010-04-04T08:40:32Z</time>
      </trkpt>
      <trkpt lat="47.31545" lon="-0.66">
        <ele>53.97</ele>
        <time>2010-04-04T08:40:38Z</time>
      </trkpt>
      <trkpt lat="47.31546" lon="-0.66006">
        <ele>53.97</ele>
        <time>2010-04-04T08:40:39Z</time>
      </trkpt>
      <trkpt lat="47.31555" lon="-0.6605">
        <ele>53.01</ele>
        <time>2010-04-04T08:40:46Z</time>
      </trkpt>
      <trkpt lat="47.31571" lon="-0.66129">
        <ele>51.57</ele>
        <time>2010-04-04T08:40:57Z</time>
      </trkpt>
      <trkpt lat="47.31572" lon="-0.66136">
        <ele>51.57</ele>
        <time>2010-04-04T08:40:58Z</time>
      </trkpt>
      <trkpt lat="47.31574" lon="-0.66142">
        <ele>51.57</ele>
        <time>2010-04-04T08:40:59Z</time>
      </trkpt>
      <trkpt lat="47.31576" lon="-0.66148">
        <ele>51.57</ele>
        <time>2010-04-04T08:41:00Z</time>
      </trkpt>
      <trkpt lat="47.31578" lon="-0.66154">
        <ele>51.57</ele>
        <time>2010-04-04T08:41:01Z</time>
      </trkpt>
      <trkpt lat="47.3158" lon="-0.6616">
        <ele>51.57</ele>
        <time>2010-04-04T08:41:02Z</time>
      </trkpt>
      <trkpt lat="47.31589" lon="-0.66188">
        <ele>51.09</ele>
        <time>2010-04-04T08:41:07Z</time>
      </trkpt>
      <trkpt lat="47.31599" lon="-0.66234">
        <ele>52.05</ele>
        <time>2010-04-04T08:41:16Z</time>
      </trkpt>
      <trkpt lat="47.31597" lon="-0.66237">
        <ele>52.53</ele>
        <time>2010-04-04T08:41:17Z</time>
      </trkpt>
      <trkpt lat="47.31594" lon="-0.66238">
        <ele>52.53</ele>
        <time>2010-04-04T08:41:18Z</time>
      </trkpt>
      <trkpt lat="47.31591" lon="-0.6624">
        <ele>53.01</ele>
        <time>2010-04-04T08:41:19Z</time>
      </trkpt>
      <trkpt lat="47.31589" lon="-0.66241">
        <ele>53.01</ele>
        <time>2010-04-04T08:41:20Z</time>
      </trkpt>
      <trkpt lat="47.31586" lon="-0.66242">
        <ele>53.01</ele>
        <time>2010-04-04T08:41:21Z</time>
      </trkpt>
      <trkpt lat="47.31583" lon="-0.66244">
        <ele>53.49</ele>
        <time>2010-04-04T08:41:22Z</time>
      </trkpt>
      <trkpt lat="47.31541" lon="-0.66265">
        <ele>54.93</ele>
        <time>2010-04-04T08:41:34Z</time>
      </trkpt>
      <trkpt lat="47.31496" lon="-0.66288">
        <ele>56.37</ele>
        <time>2010-04-04T08:41:48Z</time>
      </trkpt>
      <trkpt lat="47.31461" lon="-0.66306">
        <ele>58.3</ele>
        <time>2010-04-04T08:42:00Z</time>
      </trkpt>
      <trkpt lat="47.31431" lon="-0.66323">
        <ele>59.26</ele>
        <time>2010-04-04T08:42:11Z</time>
      </trkpt>
      <trkpt lat="47.31394" lon="-0.66351">
        <ele>59.74</ele>
        <time>2010-04-04T08:42:24Z</time>
      </trkpt>
      <trkpt lat="47.31363" lon="-0.6638">
        <ele>59.74</ele>
        <time>2010-04-04T08:42:35Z</time>
      </trkpt>
      <trkpt lat="47.31324" lon="-0.66415">
        <ele>60.22</ele>
        <time>2010-04-04T08:42:48Z</time>
      </trkpt>
      <trkpt lat="47.31289" lon="-0.66452">
        <ele>57.82</ele>
        <time>2010-04-04T08:42:58Z</time>
      </trkpt>
      <trkpt lat="47.31258" lon="-0.6648">
        <ele>56.37</ele>
        <time>2010-04-04T08:43:05Z</time>
      </trkpt>
      <trkpt lat="47.31254" lon="-0.66485">
        <ele>56.37</ele>
        <time>2010-04-04T08:43:06Z</time>
      </trkpt>
      <trkpt lat="47.31251" lon="-0.66492">
        <ele>55.89</ele>
        <time>2010-04-04T08:43:07Z</time>
      </trkpt>
      <trkpt lat="47.3125" lon="-0.66498">
        <ele>55.89</ele>
        <time>2010-04-04T08:43:08Z</time>
      </trkpt>
      <trkpt lat="47.31249" lon="-0.66504">
        <ele>55.89</ele>
        <time>2010-04-04T08:43:09Z</time>
      </trkpt>
      <trkpt lat="47.3125" lon="-0.6652">
        <ele>55.41</ele>
        <time>2010-04-04T08:43:12Z</time>
      </trkpt>
      <trkpt lat="47.31261" lon="-0.66527">
        <ele>54.45</ele>
        <time>2010-04-04T08:43:15Z</time>
      </trkpt>
      <trkpt lat="47.31265" lon="-0.66527">
        <ele>54.45</ele>
        <time>2010-04-04T08:43:16Z</time>
      </trkpt>
      <trkpt lat="47.3127" lon="-0.66527">
        <ele>53.97</ele>
        <time>2010-04-04T08:43:17Z</time>
      </trkpt>
      <trkpt lat="47.31274" lon="-0.66526">
        <ele>53.97</ele>
        <time>2010-04-04T08:43:18Z</time>
      </trkpt>
      <trkpt lat="47.31307" lon="-0.66528">
        <ele>52.05</ele>
        <time>2010-04-04T08:43:26Z</time>
      </trkpt>
      <trkpt lat="47.31335" lon="-0.66533">
        <ele>52.05</ele>
        <time>2010-04-04T08:43:31Z</time>
      </trkpt>
      <trkpt lat="47.31342" lon="-0.66532">
        <ele>52.05</ele>
        <time>2010-04-04T08:43:32Z</time>
      </trkpt>
      <trkpt lat="47.31355" lon="-0.66531">
        <ele>51.57</ele>
        <time>2010-04-04T08:43:34Z</time>
      </trkpt>
      <trkpt lat="47.31369" lon="-0.66532">
        <ele>50.61</ele>
        <time>2010-04-04T08:43:36Z</time>
      </trkpt>
      <trkpt lat="47.31376" lon="-0.66534">
        <ele>50.13</ele>
        <time>2010-04-04T08:43:37Z</time>
      </trkpt>
      <trkpt lat="47.31382" lon="-0.66537">
        <ele>50.13</ele>
        <time>2010-04-04T08:43:38Z</time>
      </trkpt>
      <trkpt lat="47.31423" lon="-0.66562">
        <ele>50.61</ele>
        <time>2010-04-04T08:43:47Z</time>
      </trkpt>
      <trkpt lat="47.31454" lon="-0.66574">
        <ele>53.97</ele>
        <time>2010-04-04T08:43:58Z</time>
      </trkpt>
      <trkpt lat="47.31481" lon="-0.6658">
        <ele>56.86</ele>
        <time>2010-04-04T08:44:09Z</time>
      </trkpt>
      <trkpt lat="47.31516" lon="-0.66591">
        <ele>57.34</ele>
        <time>2010-04-04T08:44:22Z</time>
      </trkpt>
      <trkpt lat="47.31559" lon="-0.66602">
        <ele>56.37</ele>
        <time>2010-04-04T08:44:36Z</time>
      </trkpt>
      <trkpt lat="47.31593" lon="-0.66609">
        <ele>56.86</ele>
        <time>2010-04-04T08:44:46Z</time>
      </trkpt>
      <trkpt lat="47.31636" lon="-0.66618">
        <ele>56.37</ele>
        <time>2010-04-04T08:44:58Z</time>
      </trkpt>
      <trkpt lat="47.31652" lon="-0.6662">
        <ele>56.37</ele>
        <time>2010-04-04T08:45:02Z</time>
      </trkpt>
      <trkpt lat="47.31656" lon="-0.66621">
        <ele>56.37</ele>
        <time>2010-04-04T08:45:03Z</time>
      </trkpt>
      <trkpt lat="47.3166" lon="-0.66621">
        <ele>56.37</ele>
        <time>2010-04-04T08:45:04Z</time>
      </trkpt>
      <trkpt lat="47.31711" lon="-0.66616">
        <ele>54.93</ele>
        <time>2010-04-04T08:45:16Z</time>
      </trkpt>
      <trkpt lat="47.31714" lon="-0.66613">
        <ele>54.93</ele>
        <time>2010-04-04T08:45:17Z</time>
      </trkpt>
      <trkpt lat="47.31721" lon="-0.66606">
        <ele>54.45</ele>
        <time>2010-04-04T08:45:19Z</time>
      </trkpt>
      <trkpt lat="47.31732" lon="-0.66594">
        <ele>54.45</ele>
        <time>2010-04-04T08:45:22Z</time>
      </trkpt>
      <trkpt lat="47.31748" lon="-0.66574">
        <ele>53.97</ele>
        <time>2010-04-04T08:45:27Z</time>
      </trkpt>
      <trkpt lat="47.31754" lon="-0.66563">
        <ele>53.49</ele>
        <time>2010-04-04T08:45:29Z</time>
      </trkpt>
      <trkpt lat="47.3176" lon="-0.66553">
        <ele>53.49</ele>
        <time>2010-04-04T08:45:31Z</time>
      </trkpt>
      <trkpt lat="47.31764" lon="-0.66546">
        <ele>53.49</ele>
        <time>2010-04-04T08:45:36Z</time>
      </trkpt>
      <trkpt lat="47.31776" lon="-0.6653">
        <ele>53.49</ele>
        <time>2010-04-04T08:45:43Z</time>
      </trkpt>
      <trkpt lat="47.31787" lon="-0.66517">
        <ele>53.49</ele>
        <time>2010-04-04T08:45:46Z</time>
      </trkpt>
      <trkpt lat="47.3179" lon="-0.66512">
        <ele>53.01</ele>
        <time>2010-04-04T08:45:47Z</time>
      </trkpt>
      <trkpt lat="47.31804" lon="-0.6649">
        <ele>52.05</ele>
        <time>2010-04-04T08:45:51Z</time>
      </trkpt>
      <trkpt lat="47.31808" lon="-0.66484">
        <ele>52.05</ele>
        <time>2010-04-04T08:45:52Z</time>
      </trkpt>
      <trkpt lat="47.31838" lon="-0.66435">
        <ele>51.09</ele>
        <time>2010-04-04T08:46:00Z</time>
      </trkpt>
      <trkpt lat="47.31841" lon="-0.66429">
        <ele>51.09</ele>
        <time>2010-04-04T08:46:01Z</time>
      </trkpt>
      <trkpt lat="47.31845" lon="-0.66423">
        <ele>51.09</ele>
        <time>2010-04-04T08:46:02Z</time>
      </trkpt>
      <trkpt lat="47.31859" lon="-0.66398">
        <ele>50.61</ele>
        <time>2010-04-04T08:46:06Z</time>
      </trkpt>
      <trkpt lat="47.31897" lon="-0.6631">
        <ele>47.72</ele>
        <time>2010-04-04T08:46:18Z</time>
      </trkpt>
      <trkpt lat="47.31918" lon="-0.66268">
        <ele>45.8</ele>
        <time>2010-04-04T08:46:24Z</time>
      </trkpt>
      <trkpt lat="47.31922" lon="-0.66262">
        <ele>45.8</ele>
        <time>2010-04-04T08:46:25Z</time>
      </trkpt>
      <trkpt lat="47.31925" lon="-0.66254">
        <ele>45.8</ele>
        <time>2010-04-04T08:46:26Z</time>
      </trkpt>
      <trkpt lat="47.31934" lon="-0.66233">
        <ele>44.84</ele>
        <time>2010-04-04T08:46:29Z</time>
      </trkpt>
      <trkpt lat="47.31974" lon="-0.66169">
        <ele>40.99</ele>
        <time>2010-04-04T08:46:39Z</time>
      </trkpt>
      <trkpt lat="47.32018" lon="-0.66115">
        <ele>38.11</ele>
        <time>2010-04-04T08:46:48Z</time>
      </trkpt>
      <trkpt lat="47.32026" lon="-0.66102">
        <ele>37.63</ele>
        <time>2010-04-04T08:46:50Z</time>
      </trkpt>
      <trkpt lat="47.32029" lon="-0.66095">
        <ele>37.63</ele>
        <time>2010-04-04T08:46:51Z</time>
      </trkpt>
      <trkpt lat="47.3203" lon="-0.66087">
        <ele>37.15</ele>
        <time>2010-04-04T08:46:52Z</time>
      </trkpt>
      <trkpt lat="47.32032" lon="-0.66062">
        <ele>36.67</ele>
        <time>2010-04-04T08:46:55Z</time>
      </trkpt>
      <trkpt lat="47.32036" lon="-0.66017">
        <ele>36.67</ele>
        <time>2010-04-04T08:47:01Z</time>
      </trkpt>
      <trkpt lat="47.32062" lon="-0.65994">
        <ele>35.23</ele>
        <time>2010-04-04T08:47:07Z</time>
      </trkpt>
      <trkpt lat="47.32085" lon="-0.65976">
        <ele>33.3</ele>
        <time>2010-04-04T08:47:11Z</time>
      </trkpt>
      <trkpt lat="47.32091" lon="-0.65971">
        <ele>32.82</ele>
        <time>2010-04-04T08:47:12Z</time>
      </trkpt>
      <trkpt lat="47.32096" lon="-0.65968">
        <ele>31.86</ele>
        <time>2010-04-04T08:47:13Z</time>
      </trkpt>
      <trkpt lat="47.32101" lon="-0.65966">
        <ele>31.86</ele>
        <time>2010-04-04T08:47:14Z</time>
      </trkpt>
      <trkpt lat="47.32105" lon="-0.65967">
        <ele>31.86</ele>
        <time>2010-04-04T08:47:15Z</time>
      </trkpt>
      <trkpt lat="47.32112" lon="-0.65976">
        <ele>30.9</ele>
        <time>2010-04-04T08:47:17Z</time>
      </trkpt>
      <trkpt lat="47.32131" lon="-0.65988">
        <ele>29.94</ele>
        <time>2010-04-04T08:47:22Z</time>
      </trkpt>
      <trkpt lat="47.32193" lon="-0.65951">
        <ele>24.65</ele>
        <time>2010-04-04T08:47:32Z</time>
      </trkpt>
      <trkpt lat="47.32206" lon="-0.65946">
        <ele>23.69</ele>
        <time>2010-04-04T08:47:36Z</time>
      </trkpt>
      <trkpt lat="47.32209" lon="-0.65949">
        <ele>23.69</ele>
        <time>2010-04-04T08:47:37Z</time>
      </trkpt>
      <trkpt lat="47.32211" lon="-0.65955">
        <ele>23.69</ele>
        <time>2010-04-04T08:47:38Z</time>
      </trkpt>
      <trkpt lat="47.32212" lon="-0.6596">
        <ele>23.21</ele>
        <time>2010-04-04T08:47:39Z</time>
      </trkpt>
      <trkpt lat="47.32213" lon="-0.65967">
        <ele>23.21</ele>
        <time>2010-04-04T08:47:40Z</time>
      </trkpt>
      <trkpt lat="47.32214" lon="-0.65974">
        <ele>23.21</ele>
        <time>2010-04-04T08:47:41Z</time>
      </trkpt>
      <trkpt lat="47.32227" lon="-0.66069">
        <ele>21.29</ele>
        <time>2010-04-04T08:47:54Z</time>
      </trkpt>
      <trkpt lat="47.32241" lon="-0.6613">
        <ele>21.29</ele>
        <time>2010-04-04T08:48:05Z</time>
      </trkpt>
      <trkpt lat="47.3226" lon="-0.66181">
        <ele>22.73</ele>
        <time>2010-04-04T08:48:16Z</time>
      </trkpt>
      <trkpt lat="47.32282" lon="-0.66234">
        <ele>22.25</ele>
        <time>2010-04-04T08:48:26Z</time>
      </trkpt>
      <trkpt lat="47.32284" lon="-0.66241">
        <ele>22.25</ele>
        <time>2010-04-04T08:48:27Z</time>
      </trkpt>
      <trkpt lat="47.32304" lon="-0.66298">
        <ele>21.29</ele>
        <time>2010-04-04T08:48:37Z</time>
      </trkpt>
      <trkpt lat="47.32307" lon="-0.66304">
        <ele>21.29</ele>
        <time>2010-04-04T08:48:38Z</time>
      </trkpt>
      <trkpt lat="47.32328" lon="-0.66359">
        <ele>18.88</ele>
        <time>2010-04-04T08:48:47Z</time>
      </trkpt>
      <trkpt lat="47.32332" lon="-0.66365">
        <ele>18.4</ele>
        <time>2010-04-04T08:48:48Z</time>
      </trkpt>
      <trkpt lat="47.32337" lon="-0.66369">
        <ele>18.4</ele>
        <time>2010-04-04T08:48:49Z</time>
      </trkpt>
      <trkpt lat="47.32342" lon="-0.66371">
        <ele>17.92</ele>
        <time>2010-04-04T08:48:50Z</time>
      </trkpt>
      <trkpt lat="47.32348" lon="-0.66372">
        <ele>17.44</ele>
        <time>2010-04-04T08:48:51Z</time>
      </trkpt>
      <trkpt lat="47.32353" lon="-0.66373">
        <ele>16.96</ele>
        <time>2010-04-04T08:48:52Z</time>
      </trkpt>
      <trkpt lat="47.32411" lon="-0.66387">
        <ele>18.88</ele>
        <time>2010-04-04T08:49:04Z</time>
      </trkpt>
      <trkpt lat="47.32465" lon="-0.664">
        <ele>19.36</ele>
        <time>2010-04-04T08:49:16Z</time>
      </trkpt>
      <trkpt lat="47.3247" lon="-0.66401">
        <ele>19.36</ele>
        <time>2010-04-04T08:49:17Z</time>
      </trkpt>
      <trkpt lat="47.32508" lon="-0.6639">
        <ele>17.92</ele>
        <time>2010-04-04T08:49:26Z</time>
      </trkpt>
      <trkpt lat="47.3251" lon="-0.66387">
        <ele>17.92</ele>
        <time>2010-04-04T08:49:27Z</time>
      </trkpt>
      <trkpt lat="47.32512" lon="-0.66385">
        <ele>17.44</ele>
        <time>2010-04-04T08:49:28Z</time>
      </trkpt>
      <trkpt lat="47.32513" lon="-0.66382">
        <ele>17.44</ele>
        <time>2010-04-04T08:49:29Z</time>
      </trkpt>
      <trkpt lat="47.32514" lon="-0.6638">
        <ele>17.44</ele>
        <time>2010-04-04T08:49:30Z</time>
      </trkpt>
      <trkpt lat="47.32515" lon="-0.66379">
        <ele>17.44</ele>
        <time>2010-04-04T08:49:31Z</time>
      </trkpt>
      <trkpt lat="47.32517" lon="-0.66378">
        <ele>17.44</ele>
        <time>2010-04-04T08:49:32Z</time>
      </trkpt>
      <trkpt lat="47.32518" lon="-0.66378">
        <ele>16.96</ele>
        <time>2010-04-04T08:49:33Z</time>
      </trkpt>
      <trkpt lat="47.32519" lon="-0.6638">
        <ele>16.96</ele>
        <time>2010-04-04T08:49:35Z</time>
      </trkpt>
      <trkpt lat="47.32519" lon="-0.66381">
        <ele>16.48</ele>
        <time>2010-04-04T08:49:36Z</time>
      </trkpt>
      <trkpt lat="47.32519" lon="-0.66383">
        <ele>16.48</ele>
        <time>2010-04-04T08:49:37Z</time>
      </trkpt>
      <trkpt lat="47.32519" lon="-0.66386">
        <ele>16.48</ele>
        <time>2010-04-04T08:49:38Z</time>
      </trkpt>
      <trkpt lat="47.32519" lon="-0.66389">
        <ele>16.48</ele>
        <time>2010-04-04T08:49:39Z</time>
      </trkpt>
      <trkpt lat="47.3252" lon="-0.66392">
        <ele>16.48</ele>
        <time>2010-04-04T08:49:40Z</time>
      </trkpt>
      <trkpt lat="47.3252" lon="-0.66395">
        <ele>16.48</ele>
        <time>2010-04-04T08:49:41Z</time>
      </trkpt>
      <trkpt lat="47.32532" lon="-0.6642">
        <ele>16.48</ele>
        <time>2010-04-04T08:49:51Z</time>
      </trkpt>
      <trkpt lat="47.32549" lon="-0.66441">
        <ele>17.44</ele>
        <time>2010-04-04T08:50:00Z</time>
      </trkpt>
      <trkpt lat="47.32556" lon="-0.6645">
        <ele>18.4</ele>
        <time>2010-04-04T08:50:04Z</time>
      </trkpt>
      <trkpt lat="47.32557" lon="-0.66452">
        <ele>18.4</ele>
        <time>2010-04-04T08:50:05Z</time>
      </trkpt>
      <trkpt lat="47.32558" lon="-0.66455">
        <ele>18.4</ele>
        <time>2010-04-04T08:50:06Z</time>
      </trkpt>
      <trkpt lat="47.3256" lon="-0.66456">
        <ele>18.4</ele>
        <time>2010-04-04T08:50:07Z</time>
      </trkpt>
      <trkpt lat="47.3256" lon="-0.66459">
        <ele>18.88</ele>
        <time>2010-04-04T08:50:09Z</time>
      </trkpt>
      <trkpt lat="47.32559" lon="-0.6646">
        <ele>18.88</ele>
        <time>2010-04-04T08:50:10Z</time>
      </trkpt>
      <trkpt lat="47.32558" lon="-0.6646">
        <ele>18.88</ele>
        <time>2010-04-04T08:50:11Z</time>
      </trkpt>
      <trkpt lat="47.32556" lon="-0.66457">
        <ele>18.88</ele>
        <time>2010-04-04T08:50:12Z</time>
      </trkpt>
      <trkpt lat="47.32554" lon="-0.66454">
        <ele>19.36</ele>
        <time>2010-04-04T08:50:13Z</time>
      </trkpt>
      <trkpt lat="47.32538" lon="-0.66435">
        <ele>19.36</ele>
        <time>2010-04-04T08:50:18Z</time>
      </trkpt>
      <trkpt lat="47.32534" lon="-0.66432">
        <ele>19.36</ele>
        <time>2010-04-04T08:50:19Z</time>
      </trkpt>
      <trkpt lat="47.32531" lon="-0.66428">
        <ele>19.36</ele>
        <time>2010-04-04T08:50:20Z</time>
      </trkpt>
      <trkpt lat="47.32526" lon="-0.66419">
        <ele>18.88</ele>
        <time>2010-04-04T08:50:22Z</time>
      </trkpt>
      <trkpt lat="47.32526" lon="-0.66414">
        <ele>18.88</ele>
        <time>2010-04-04T08:50:23Z</time>
      </trkpt>
      <trkpt lat="47.32527" lon="-0.6641">
        <ele>19.36</ele>
        <time>2010-04-04T08:50:24Z</time>
      </trkpt>
      <trkpt lat="47.32529" lon="-0.66406">
        <ele>19.36</ele>
        <time>2010-04-04T08:50:25Z</time>
      </trkpt>
      <trkpt lat="47.32532" lon="-0.66404">
        <ele>19.36</ele>
        <time>2010-04-04T08:50:26Z</time>
      </trkpt>
      <trkpt lat="47.32534" lon="-0.66402">
        <ele>19.36</ele>
        <time>2010-04-04T08:50:27Z</time>
      </trkpt>
      <trkpt lat="47.32538" lon="-0.664">
        <ele>19.36</ele>
        <time>2010-04-04T08:50:28Z</time>
      </trkpt>
      <trkpt lat="47.32541" lon="-0.66398">
        <ele>18.88</ele>
        <time>2010-04-04T08:50:29Z</time>
      </trkpt>
      <trkpt lat="47.32544" lon="-0.66396">
        <ele>18.88</ele>
        <time>2010-04-04T08:50:30Z</time>
      </trkpt>
      <trkpt lat="47.32583" lon="-0.6637">
        <ele>20.81</ele>
        <time>2010-04-04T08:50:41Z</time>
      </trkpt>
      <trkpt lat="47.32615" lon="-0.66338">
        <ele>21.77</ele>
        <time>2010-04-04T08:50:52Z</time>
      </trkpt>
      <trkpt lat="47.32657" lon="-0.66314">
        <ele>23.69</ele>
        <time>2010-04-04T08:51:04Z</time>
      </trkpt>
      <trkpt lat="47.327" lon="-0.66279">
        <ele>24.17</ele>
        <time>2010-04-04T08:51:17Z</time>
      </trkpt>
      <trkpt lat="47.32739" lon="-0.66242">
        <ele>25.61</ele>
        <time>2010-04-04T08:51:29Z</time>
      </trkpt>
      <trkpt lat="47.32776" lon="-0.66222">
        <ele>27.53</ele>
        <time>2010-04-04T08:51:40Z</time>
      </trkpt>
      <trkpt lat="47.32815" lon="-0.66215">
        <ele>28.98</ele>
        <time>2010-04-04T08:51:52Z</time>
      </trkpt>
      <trkpt lat="47.32839" lon="-0.66214">
        <ele>29.94</ele>
        <time>2010-04-04T08:52:00Z</time>
      </trkpt>
      <trkpt lat="47.32876" lon="-0.6621">
        <ele>31.38</ele>
        <time>2010-04-04T08:52:13Z</time>
      </trkpt>
      <trkpt lat="47.32897" lon="-0.66207">
        <ele>32.82</ele>
        <time>2010-04-04T08:52:22Z</time>
      </trkpt>
      <trkpt lat="47.32912" lon="-0.66201">
        <ele>33.78</ele>
        <time>2010-04-04T08:52:29Z</time>
      </trkpt>
      <trkpt lat="47.32933" lon="-0.66201">
        <ele>36.19</ele>
        <time>2010-04-04T08:52:39Z</time>
      </trkpt>
      <trkpt lat="47.32958" lon="-0.66198">
        <ele>38.59</ele>
        <time>2010-04-04T08:52:51Z</time>
      </trkpt>
      <trkpt lat="47.32979" lon="-0.66197">
        <ele>40.03</ele>
        <time>2010-04-04T08:53:01Z</time>
      </trkpt>
      <trkpt lat="47.32999" lon="-0.66194">
        <ele>42.92</ele>
        <time>2010-04-04T08:53:11Z</time>
      </trkpt>
      <trkpt lat="47.33017" lon="-0.66192">
        <ele>44.84</ele>
        <time>2010-04-04T08:53:21Z</time>
      </trkpt>
      <trkpt lat="47.33019" lon="-0.66192">
        <ele>44.84</ele>
        <time>2010-04-04T08:53:22Z</time>
      </trkpt>
      <trkpt lat="47.33041" lon="-0.66188">
        <ele>47.24</ele>
        <time>2010-04-04T08:53:34Z</time>
      </trkpt>
      <trkpt lat="47.33063" lon="-0.66181">
        <ele>48.68</ele>
        <time>2010-04-04T08:53:45Z</time>
      </trkpt>
      <trkpt lat="47.33065" lon="-0.6618">
        <ele>48.68</ele>
        <time>2010-04-04T08:53:46Z</time>
      </trkpt>
      <trkpt lat="47.33066" lon="-0.66178">
        <ele>48.2</ele>
        <time>2010-04-04T08:53:47Z</time>
      </trkpt>
      <trkpt lat="47.33068" lon="-0.66176">
        <ele>48.2</ele>
        <time>2010-04-04T08:53:48Z</time>
      </trkpt>
      <trkpt lat="47.33097" lon="-0.66149">
        <ele>47.72</ele>
        <time>2010-04-04T08:54:02Z</time>
      </trkpt>
      <trkpt lat="47.33118" lon="-0.66131">
        <ele>45.8</ele>
        <time>2010-04-04T08:54:11Z</time>
      </trkpt>
      <trkpt lat="47.33115" lon="-0.66142">
        <ele>44.84</ele>
        <time>2010-04-04T08:54:16Z</time>
      </trkpt>
      <trkpt lat="47.33084" lon="-0.66178">
        <ele>44.36</ele>
        <time>2010-04-04T08:54:28Z</time>
      </trkpt>
      <trkpt lat="47.33065" lon="-0.66203">
        <ele>42.44</ele>
        <time>2010-04-04T08:54:37Z</time>
      </trkpt>
      <trkpt lat="47.33061" lon="-0.66213">
        <ele>41.47</ele>
        <time>2010-04-04T08:54:39Z</time>
      </trkpt>
      <trkpt lat="47.33059" lon="-0.66219">
        <ele>40.99</ele>
        <time>2010-04-04T08:54:40Z</time>
      </trkpt>
      <trkpt lat="47.33058" lon="-0.66225">
        <ele>40.51</ele>
        <time>2010-04-04T08:54:41Z</time>
      </trkpt>
      <trkpt lat="47.33057" lon="-0.66231">
        <ele>39.55</ele>
        <time>2010-04-04T08:54:42Z</time>
      </trkpt>
      <trkpt lat="47.33057" lon="-0.66237">
        <ele>39.07</ele>
        <time>2010-04-04T08:54:43Z</time>
      </trkpt>
      <trkpt lat="47.33057" lon="-0.66243">
        <ele>38.59</ele>
        <time>2010-04-04T08:54:44Z</time>
      </trkpt>
      <trkpt lat="47.33059" lon="-0.6625">
        <ele>37.63</ele>
        <time>2010-04-04T08:54:45Z</time>
      </trkpt>
      <trkpt lat="47.33073" lon="-0.66332">
        <ele>31.86</ele>
        <time>2010-04-04T08:54:56Z</time>
      </trkpt>
      <trkpt lat="47.33074" lon="-0.66338">
        <ele>32.34</ele>
        <time>2010-04-04T08:54:57Z</time>
      </trkpt>
      <trkpt lat="47.33075" lon="-0.66341">
        <ele>31.86</ele>
        <time>2010-04-04T08:54:58Z</time>
      </trkpt>
      <trkpt lat="47.33076" lon="-0.66343">
        <ele>31.86</ele>
        <time>2010-04-04T08:54:59Z</time>
      </trkpt>
      <trkpt lat="47.3308" lon="-0.66343">
        <ele>31.86</ele>
        <time>2010-04-04T08:55:03Z</time>
      </trkpt>
      <trkpt lat="47.3308" lon="-0.66357">
        <ele>30.9</ele>
        <time>2010-04-04T08:55:09Z</time>
      </trkpt>
      <trkpt lat="47.33095" lon="-0.66399">
        <ele>31.38</ele>
        <time>2010-04-04T08:55:20Z</time>
      </trkpt>
      <trkpt lat="47.33097" lon="-0.66412">
        <ele>31.38</ele>
        <time>2010-04-04T08:55:23Z</time>
      </trkpt>
      <trkpt lat="47.33112" lon="-0.66411">
        <ele>33.3</ele>
        <time>2010-04-04T08:55:30Z</time>
      </trkpt>
      <trkpt lat="47.3312" lon="-0.66404">
        <ele>34.26</ele>
        <time>2010-04-04T08:55:34Z</time>
      </trkpt>
      <trkpt lat="47.33131" lon="-0.66395">
        <ele>35.23</ele>
        <time>2010-04-04T08:55:44Z</time>
      </trkpt>
      <trkpt lat="47.33131" lon="-0.66395">
        <ele>35.23</ele>
        <time>2010-04-04T08:56:01Z</time>
      </trkpt>
      <trkpt lat="47.3313" lon="-0.66395">
        <ele>34.74</ele>
        <time>2010-04-04T08:57:01Z</time>
      </trkpt>
      <trkpt lat="47.33135" lon="-0.66391">
        <ele>35.23</ele>
        <time>2010-04-04T08:57:11Z</time>
      </trkpt>
      <trkpt lat="47.33143" lon="-0.66386">
        <ele>35.23</ele>
        <time>2010-04-04T08:57:15Z</time>
      </trkpt>
      <trkpt lat="47.33166" lon="-0.66365">
        <ele>35.71</ele>
        <time>2010-04-04T08:57:25Z</time>
      </trkpt>
      <trkpt lat="47.33184" lon="-0.66331">
        <ele>36.67</ele>
        <time>2010-04-04T08:57:35Z</time>
      </trkpt>
      <trkpt lat="47.33188" lon="-0.66325">
        <ele>36.67</ele>
        <time>2010-04-04T08:57:37Z</time>
      </trkpt>
      <trkpt lat="47.33184" lon="-0.66308">
        <ele>36.19</ele>
        <time>2010-04-04T08:57:41Z</time>
      </trkpt>
      <trkpt lat="47.33181" lon="-0.66304">
        <ele>35.71</ele>
        <time>2010-04-04T08:57:42Z</time>
      </trkpt>
      <trkpt lat="47.33179" lon="-0.663">
        <ele>35.71</ele>
        <time>2010-04-04T08:57:43Z</time>
      </trkpt>
      <trkpt lat="47.33179" lon="-0.66295">
        <ele>35.23</ele>
        <time>2010-04-04T08:57:44Z</time>
      </trkpt>
      <trkpt lat="47.33179" lon="-0.66291">
        <ele>35.23</ele>
        <time>2010-04-04T08:57:45Z</time>
      </trkpt>
      <trkpt lat="47.33181" lon="-0.66287">
        <ele>35.23</ele>
        <time>2010-04-04T08:57:46Z</time>
      </trkpt>
      <trkpt lat="47.33183" lon="-0.66282">
        <ele>35.71</ele>
        <time>2010-04-04T08:57:47Z</time>
      </trkpt>
      <trkpt lat="47.33185" lon="-0.66278">
        <ele>35.71</ele>
        <time>2010-04-04T08:57:48Z</time>
      </trkpt>
      <trkpt lat="47.33191" lon="-0.66271">
        <ele>35.71</ele>
        <time>2010-04-04T08:57:50Z</time>
      </trkpt>
      <trkpt lat="47.33194" lon="-0.66268">
        <ele>36.19</ele>
        <time>2010-04-04T08:57:51Z</time>
      </trkpt>
      <trkpt lat="47.33197" lon="-0.66265">
        <ele>36.67</ele>
        <time>2010-04-04T08:57:52Z</time>
      </trkpt>
      <trkpt lat="47.33215" lon="-0.66235">
        <ele>37.63</ele>
        <time>2010-04-04T08:58:01Z</time>
      </trkpt>
      <trkpt lat="47.33233" lon="-0.66212">
        <ele>38.59</ele>
        <time>2010-04-04T08:58:11Z</time>
      </trkpt>
      <trkpt lat="47.33241" lon="-0.66205">
        <ele>39.07</ele>
        <time>2010-04-04T08:58:16Z</time>
      </trkpt>
      <trkpt lat="47.33242" lon="-0.66205">
        <ele>39.55</ele>
        <time>2010-04-04T08:58:17Z</time>
      </trkpt>
      <trkpt lat="47.33244" lon="-0.66206">
        <ele>39.55</ele>
        <time>2010-04-04T08:58:18Z</time>
      </trkpt>
      <trkpt lat="47.33246" lon="-0.66207">
        <ele>39.55</ele>
        <time>2010-04-04T08:58:19Z</time>
      </trkpt>
      <trkpt lat="47.33248" lon="-0.66208">
        <ele>40.03</ele>
        <time>2010-04-04T08:58:20Z</time>
      </trkpt>
      <trkpt lat="47.33249" lon="-0.66209">
        <ele>40.03</ele>
        <time>2010-04-04T08:58:21Z</time>
      </trkpt>
      <trkpt lat="47.33251" lon="-0.66211">
        <ele>40.03</ele>
        <time>2010-04-04T08:58:22Z</time>
      </trkpt>
      <trkpt lat="47.33252" lon="-0.66212">
        <ele>40.51</ele>
        <time>2010-04-04T08:58:23Z</time>
      </trkpt>
      <trkpt lat="47.33253" lon="-0.66214">
        <ele>40.51</ele>
        <time>2010-04-04T08:58:24Z</time>
      </trkpt>
      <trkpt lat="47.33254" lon="-0.66215">
        <ele>40.51</ele>
        <time>2010-04-04T08:58:25Z</time>
      </trkpt>
      <trkpt lat="47.33255" lon="-0.66217">
        <ele>40.51</ele>
        <time>2010-04-04T08:58:26Z</time>
      </trkpt>
      <trkpt lat="47.33257" lon="-0.66218">
        <ele>40.51</ele>
        <time>2010-04-04T08:58:27Z</time>
      </trkpt>
      <trkpt lat="47.33258" lon="-0.6622">
        <ele>40.51</ele>
        <time>2010-04-04T08:58:28Z</time>
      </trkpt>
      <trkpt lat="47.33259" lon="-0.66222">
        <ele>40.51</ele>
        <time>2010-04-04T08:58:29Z</time>
      </trkpt>
      <trkpt lat="47.33271" lon="-0.66242">
        <ele>41.95</ele>
        <time>2010-04-04T08:58:41Z</time>
      </trkpt>
      <trkpt lat="47.33272" lon="-0.66243">
        <ele>41.95</ele>
        <time>2010-04-04T08:58:42Z</time>
      </trkpt>
      <trkpt lat="47.33273" lon="-0.66245">
        <ele>42.44</ele>
        <time>2010-04-04T08:58:43Z</time>
      </trkpt>
      <trkpt lat="47.33274" lon="-0.66247">
        <ele>42.44</ele>
        <time>2010-04-04T08:58:44Z</time>
      </trkpt>
      <trkpt lat="47.33274" lon="-0.66248">
        <ele>42.92</ele>
        <time>2010-04-04T08:58:45Z</time>
      </trkpt>
      <trkpt lat="47.33275" lon="-0.66249">
        <ele>42.92</ele>
        <time>2010-04-04T08:58:46Z</time>
      </trkpt>
      <trkpt lat="47.33276" lon="-0.6625">
        <ele>43.4</ele>
        <time>2010-04-04T08:58:47Z</time>
      </trkpt>
      <trkpt lat="47.33277" lon="-0.66254">
        <ele>44.84</ele>
        <time>2010-04-04T08:58:54Z</time>
      </trkpt>
      <trkpt lat="47.33283" lon="-0.66266">
        <ele>47.72</ele>
        <time>2010-04-04T08:59:04Z</time>
      </trkpt>
      <trkpt lat="47.33287" lon="-0.66278">
        <ele>50.13</ele>
        <time>2010-04-04T08:59:14Z</time>
      </trkpt>
      <trkpt lat="47.33295" lon="-0.66293">
        <ele>52.53</ele>
        <time>2010-04-04T08:59:25Z</time>
      </trkpt>
      <trkpt lat="47.33305" lon="-0.66302">
        <ele>55.89</ele>
        <time>2010-04-04T08:59:35Z</time>
      </trkpt>
      <trkpt lat="47.33315" lon="-0.66315">
        <ele>57.82</ele>
        <time>2010-04-04T08:59:47Z</time>
      </trkpt>
      <trkpt lat="47.33326" lon="-0.66327">
        <ele>59.74</ele>
        <time>2010-04-04T08:59:58Z</time>
      </trkpt>
      <trkpt lat="47.33326" lon="-0.66328">
        <ele>59.74</ele>
        <time>2010-04-04T08:59:59Z</time>
      </trkpt>
      <trkpt lat="47.33327" lon="-0.6633">
        <ele>59.74</ele>
        <time>2010-04-04T09:00:00Z</time>
      </trkpt>
      <trkpt lat="47.33336" lon="-0.66341">
        <ele>59.74</ele>
        <time>2010-04-04T09:00:10Z</time>
      </trkpt>
      <trkpt lat="47.33339" lon="-0.66344">
        <ele>59.74</ele>
        <time>2010-04-04T09:00:13Z</time>
      </trkpt>
      <trkpt lat="47.33345" lon="-0.66358">
        <ele>60.7</ele>
        <time>2010-04-04T09:00:23Z</time>
      </trkpt>
      <trkpt lat="47.33355" lon="-0.66372">
        <ele>64.07</ele>
        <time>2010-04-04T09:00:36Z</time>
      </trkpt>
      <trkpt lat="47.33366" lon="-0.66388">
        <ele>67.43</ele>
        <time>2010-04-04T09:00:50Z</time>
      </trkpt>
      <trkpt lat="47.33374" lon="-0.66404">
        <ele>69.35</ele>
        <time>2010-04-04T09:01:02Z</time>
      </trkpt>
      <trkpt lat="47.33377" lon="-0.66414">
        <ele>70.31</ele>
        <time>2010-04-04T09:01:14Z</time>
      </trkpt>
      <trkpt lat="47.33377" lon="-0.66414">
        <ele>70.31</ele>
        <time>2010-04-04T09:01:56Z</time>
      </trkpt>
      <trkpt lat="47.33382" lon="-0.66423">
        <ele>70.79</ele>
        <time>2010-04-04T09:02:06Z</time>
      </trkpt>
      <trkpt lat="47.33392" lon="-0.66439">
        <ele>72.72</ele>
        <time>2010-04-04T09:02:15Z</time>
      </trkpt>
      <trkpt lat="47.33393" lon="-0.66441">
        <ele>72.72</ele>
        <time>2010-04-04T09:02:16Z</time>
      </trkpt>
      <trkpt lat="47.33394" lon="-0.66442">
        <ele>73.2</ele>
        <time>2010-04-04T09:02:17Z</time>
      </trkpt>
      <trkpt lat="47.33406" lon="-0.66456">
        <ele>75.12</ele>
        <time>2010-04-04T09:02:26Z</time>
      </trkpt>
      <trkpt lat="47.33407" lon="-0.66458">
        <ele>75.6</ele>
        <time>2010-04-04T09:02:27Z</time>
      </trkpt>
      <trkpt lat="47.33408" lon="-0.6646">
        <ele>76.08</ele>
        <time>2010-04-04T09:02:28Z</time>
      </trkpt>
      <trkpt lat="47.33412" lon="-0.66464">
        <ele>76.56</ele>
        <time>2010-04-04T09:02:31Z</time>
      </trkpt>
      <trkpt lat="47.33413" lon="-0.66466">
        <ele>76.56</ele>
        <time>2010-04-04T09:02:32Z</time>
      </trkpt>
      <trkpt lat="47.33414" lon="-0.66468">
        <ele>76.56</ele>
        <time>2010-04-04T09:02:33Z</time>
      </trkpt>
      <trkpt lat="47.33415" lon="-0.6647">
        <ele>77.04</ele>
        <time>2010-04-04T09:02:34Z</time>
      </trkpt>
      <trkpt lat="47.33416" lon="-0.66471">
        <ele>77.04</ele>
        <time>2010-04-04T09:02:35Z</time>
      </trkpt>
      <trkpt lat="47.33418" lon="-0.66473">
        <ele>77.04</ele>
        <time>2010-04-04T09:02:36Z</time>
      </trkpt>
      <trkpt lat="47.33419" lon="-0.66475">
        <ele>77.04</ele>
        <time>2010-04-04T09:02:37Z</time>
      </trkpt>
      <trkpt lat="47.3342" lon="-0.66477">
        <ele>77.04</ele>
        <time>2010-04-04T09:02:38Z</time>
      </trkpt>
      <trkpt lat="47.33421" lon="-0.66479">
        <ele>77.04</ele>
        <time>2010-04-04T09:02:39Z</time>
      </trkpt>
      <trkpt lat="47.33422" lon="-0.66482">
        <ele>77.04</ele>
        <time>2010-04-04T09:02:40Z</time>
      </trkpt>
      <trkpt lat="47.33422" lon="-0.66484">
        <ele>77.04</ele>
        <time>2010-04-04T09:02:41Z</time>
      </trkpt>
      <trkpt lat="47.33423" lon="-0.66486">
        <ele>77.04</ele>
        <time>2010-04-04T09:02:42Z</time>
      </trkpt>
      <trkpt lat="47.33423" lon="-0.66489">
        <ele>77.04</ele>
        <time>2010-04-04T09:02:43Z</time>
      </trkpt>
      <trkpt lat="47.33424" lon="-0.66491">
        <ele>77.04</ele>
        <time>2010-04-04T09:02:44Z</time>
      </trkpt>
      <trkpt lat="47.33424" lon="-0.66493">
        <ele>77.04</ele>
        <time>2010-04-04T09:02:45Z</time>
      </trkpt>
      <trkpt lat="47.33425" lon="-0.66496">
        <ele>77.04</ele>
        <time>2010-04-04T09:02:46Z</time>
      </trkpt>
      <trkpt lat="47.33428" lon="-0.66524">
        <ele>77.52</ele>
        <time>2010-04-04T09:02:57Z</time>
      </trkpt>
      <trkpt lat="47.33429" lon="-0.66536">
        <ele>78.48</ele>
        <time>2010-04-04T09:03:02Z</time>
      </trkpt>
      <trkpt lat="47.33429" lon="-0.66538">
        <ele>78.48</ele>
        <time>2010-04-04T09:03:03Z</time>
      </trkpt>
      <trkpt lat="47.33429" lon="-0.66541">
        <ele>78.97</ele>
        <time>2010-04-04T09:03:04Z</time>
      </trkpt>
      <trkpt lat="47.3343" lon="-0.66543">
        <ele>78.97</ele>
        <time>2010-04-04T09:03:05Z</time>
      </trkpt>
      <trkpt lat="47.33431" lon="-0.66545">
        <ele>78.97</ele>
        <time>2010-04-04T09:03:06Z</time>
      </trkpt>
      <trkpt lat="47.33432" lon="-0.66547">
        <ele>78.97</ele>
        <time>2010-04-04T09:03:07Z</time>
      </trkpt>
      <trkpt lat="47.33433" lon="-0.66549">
        <ele>78.97</ele>
        <time>2010-04-04T09:03:08Z</time>
      </trkpt>
      <trkpt lat="47.33442" lon="-0.66574">
        <ele>80.41</ele>
        <time>2010-04-04T09:03:19Z</time>
      </trkpt>
      <trkpt lat="47.3345" lon="-0.66599">
        <ele>81.85</ele>
        <time>2010-04-04T09:03:30Z</time>
      </trkpt>
      <trkpt lat="47.3346" lon="-0.66624">
        <ele>83.29</ele>
        <time>2010-04-04T09:03:41Z</time>
      </trkpt>
      <trkpt lat="47.33464" lon="-0.66633">
        <ele>83.29</ele>
        <time>2010-04-04T09:03:46Z</time>
      </trkpt>
      <trkpt lat="47.33465" lon="-0.66636">
        <ele>83.29</ele>
        <time>2010-04-04T09:03:47Z</time>
      </trkpt>
      <trkpt lat="47.33465" lon="-0.66638">
        <ele>83.29</ele>
        <time>2010-04-04T09:03:48Z</time>
      </trkpt>
      <trkpt lat="47.33465" lon="-0.6664">
        <ele>83.29</ele>
        <time>2010-04-04T09:03:49Z</time>
      </trkpt>
      <trkpt lat="47.33464" lon="-0.66642">
        <ele>83.29</ele>
        <time>2010-04-04T09:03:50Z</time>
      </trkpt>
      <trkpt lat="47.33463" lon="-0.66644">
        <ele>83.29</ele>
        <time>2010-04-04T09:03:51Z</time>
      </trkpt>
      <trkpt lat="47.33462" lon="-0.66646">
        <ele>83.29</ele>
        <time>2010-04-04T09:03:52Z</time>
      </trkpt>
      <trkpt lat="47.3346" lon="-0.66647">
        <ele>82.81</ele>
        <time>2010-04-04T09:03:53Z</time>
      </trkpt>
      <trkpt lat="47.33441" lon="-0.66666">
        <ele>83.29</ele>
        <time>2010-04-04T09:04:05Z</time>
      </trkpt>
      <trkpt lat="47.3342" lon="-0.66687">
        <ele>83.29</ele>
        <time>2010-04-04T09:04:18Z</time>
      </trkpt>
      <trkpt lat="47.33417" lon="-0.66691">
        <ele>83.29</ele>
        <time>2010-04-04T09:04:20Z</time>
      </trkpt>
      <trkpt lat="47.33415" lon="-0.66694">
        <ele>83.77</ele>
        <time>2010-04-04T09:04:21Z</time>
      </trkpt>
      <trkpt lat="47.3341" lon="-0.66702">
        <ele>83.77</ele>
        <time>2010-04-04T09:04:25Z</time>
      </trkpt>
      <trkpt lat="47.33409" lon="-0.66705">
        <ele>83.77</ele>
        <time>2010-04-04T09:04:26Z</time>
      </trkpt>
      <trkpt lat="47.33409" lon="-0.66708">
        <ele>84.25</ele>
        <time>2010-04-04T09:04:27Z</time>
      </trkpt>
      <trkpt lat="47.33408" lon="-0.6671">
        <ele>84.25</ele>
        <time>2010-04-04T09:04:28Z</time>
      </trkpt>
      <trkpt lat="47.33408" lon="-0.66713">
        <ele>84.73</ele>
        <time>2010-04-04T09:04:29Z</time>
      </trkpt>
      <trkpt lat="47.33407" lon="-0.66716">
        <ele>84.73</ele>
        <time>2010-04-04T09:04:30Z</time>
      </trkpt>
      <trkpt lat="47.33406" lon="-0.66719">
        <ele>85.21</ele>
        <time>2010-04-04T09:04:31Z</time>
      </trkpt>
      <trkpt lat="47.33386" lon="-0.66737">
        <ele>86.18</ele>
        <time>2010-04-04T09:04:42Z</time>
      </trkpt>
      <trkpt lat="47.3336" lon="-0.66752">
        <ele>87.14</ele>
        <time>2010-04-04T09:04:54Z</time>
      </trkpt>
      <trkpt lat="47.33331" lon="-0.66774">
        <ele>87.62</ele>
        <time>2010-04-04T09:05:07Z</time>
      </trkpt>
      <trkpt lat="47.3332" lon="-0.668">
        <ele>88.58</ele>
        <time>2010-04-04T09:05:16Z</time>
      </trkpt>
      <trkpt lat="47.33332" lon="-0.66839">
        <ele>90.5</ele>
        <time>2010-04-04T09:05:29Z</time>
      </trkpt>
      <trkpt lat="47.33334" lon="-0.6685">
        <ele>90.98</ele>
        <time>2010-04-04T09:05:33Z</time>
      </trkpt>
      <trkpt lat="47.33335" lon="-0.66851">
        <ele>90.98</ele>
        <time>2010-04-04T09:05:34Z</time>
      </trkpt>
      <trkpt lat="47.33336" lon="-0.66853">
        <ele>90.98</ele>
        <time>2010-04-04T09:05:35Z</time>
      </trkpt>
      <trkpt lat="47.33336" lon="-0.66854">
        <ele>90.98</ele>
        <time>2010-04-04T09:05:36Z</time>
      </trkpt>
      <trkpt lat="47.33337" lon="-0.66856">
        <ele>90.98</ele>
        <time>2010-04-04T09:05:37Z</time>
      </trkpt>
      <trkpt lat="47.33338" lon="-0.66857">
        <ele>90.98</ele>
        <time>2010-04-04T09:05:38Z</time>
      </trkpt>
      <trkpt lat="47.33338" lon="-0.66859">
        <ele>91.46</ele>
        <time>2010-04-04T09:05:39Z</time>
      </trkpt>
      <trkpt lat="47.33338" lon="-0.6686">
        <ele>91.46</ele>
        <time>2010-04-04T09:05:53Z</time>
      </trkpt>
      <trkpt lat="47.33342" lon="-0.66872">
        <ele>90.98</ele>
        <time>2010-04-04T09:06:26Z</time>
      </trkpt>
      <trkpt lat="47.33353" lon="-0.6691">
        <ele>91.94</ele>
        <time>2010-04-04T09:06:36Z</time>
      </trkpt>
      <trkpt lat="47.33366" lon="-0.66956">
        <ele>92.9</ele>
        <time>2010-04-04T09:06:47Z</time>
      </trkpt>
      <trkpt lat="47.33378" lon="-0.67">
        <ele>92.42</ele>
        <time>2010-04-04T09:06:57Z</time>
      </trkpt>
      <trkpt lat="47.33392" lon="-0.67046">
        <ele>92.42</ele>
        <time>2010-04-04T09:07:08Z</time>
      </trkpt>
      <trkpt lat="47.3341" lon="-0.67095">
        <ele>91.46</ele>
        <time>2010-04-04T09:07:21Z</time>
      </trkpt>
      <trkpt lat="47.33412" lon="-0.67114">
        <ele>90.5</ele>
        <time>2010-04-04T09:07:30Z</time>
      </trkpt>
      <trkpt lat="47.33412" lon="-0.67114">
        <ele>90.5</ele>
        <time>2010-04-04T09:07:45Z</time>
      </trkpt>
      <trkpt lat="47.33423" lon="-0.67133">
        <ele>90.98</ele>
        <time>2010-04-04T09:07:53Z</time>
      </trkpt>
      <trkpt lat="47.33441" lon="-0.67173">
        <ele>90.5</ele>
        <time>2010-04-04T09:08:02Z</time>
      </trkpt>
      <trkpt lat="47.33468" lon="-0.67224">
        <ele>92.42</ele>
        <time>2010-04-04T09:08:15Z</time>
      </trkpt>
      <trkpt lat="47.33488" lon="-0.67269">
        <ele>93.39</ele>
        <time>2010-04-04T09:08:27Z</time>
      </trkpt>
      <trkpt lat="47.33502" lon="-0.67301">
        <ele>93.87</ele>
        <time>2010-04-04T09:08:37Z</time>
      </trkpt>
      <trkpt lat="47.33518" lon="-0.67332">
        <ele>93.87</ele>
        <time>2010-04-04T09:08:46Z</time>
      </trkpt>
      <trkpt lat="47.33525" lon="-0.67345">
        <ele>93.39</ele>
        <time>2010-04-04T09:08:49Z</time>
      </trkpt>
      <trkpt lat="47.33527" lon="-0.67351">
        <ele>93.39</ele>
        <time>2010-04-04T09:08:50Z</time>
      </trkpt>
      <trkpt lat="47.33531" lon="-0.67362">
        <ele>93.39</ele>
        <time>2010-04-04T09:08:52Z</time>
      </trkpt>
      <trkpt lat="47.33534" lon="-0.6738">
        <ele>92.9</ele>
        <time>2010-04-04T09:08:55Z</time>
      </trkpt>
      <trkpt lat="47.3354" lon="-0.67406">
        <ele>92.42</ele>
        <time>2010-04-04T09:08:59Z</time>
      </trkpt>
      <trkpt lat="47.33542" lon="-0.67413">
        <ele>92.42</ele>
        <time>2010-04-04T09:09:00Z</time>
      </trkpt>
      <trkpt lat="47.33545" lon="-0.6742">
        <ele>91.94</ele>
        <time>2010-04-04T09:09:01Z</time>
      </trkpt>
      <trkpt lat="47.33549" lon="-0.67434">
        <ele>91.46</ele>
        <time>2010-04-04T09:09:03Z</time>
      </trkpt>
      <trkpt lat="47.33553" lon="-0.6744">
        <ele>91.46</ele>
        <time>2010-04-04T09:09:04Z</time>
      </trkpt>
      <trkpt lat="47.33556" lon="-0.67446">
        <ele>91.46</ele>
        <time>2010-04-04T09:09:05Z</time>
      </trkpt>
      <trkpt lat="47.33565" lon="-0.67464">
        <ele>90.5</ele>
        <time>2010-04-04T09:09:08Z</time>
      </trkpt>
      <trkpt lat="47.33586" lon="-0.67497">
        <ele>89.54</ele>
        <time>2010-04-04T09:09:14Z</time>
      </trkpt>
      <trkpt lat="47.33589" lon="-0.67503">
        <ele>89.06</ele>
        <time>2010-04-04T09:09:15Z</time>
      </trkpt>
      <trkpt lat="47.33593" lon="-0.67508">
        <ele>89.06</ele>
        <time>2010-04-04T09:09:16Z</time>
      </trkpt>
      <trkpt lat="47.336" lon="-0.67519">
        <ele>88.58</ele>
        <time>2010-04-04T09:09:18Z</time>
      </trkpt>
      <trkpt lat="47.33606" lon="-0.67531">
        <ele>87.62</ele>
        <time>2010-04-04T09:09:20Z</time>
      </trkpt>
      <trkpt lat="47.33613" lon="-0.67541">
        <ele>86.66</ele>
        <time>2010-04-04T09:09:22Z</time>
      </trkpt>
      <trkpt lat="47.33625" lon="-0.67557">
        <ele>85.69</ele>
        <time>2010-04-04T09:09:28Z</time>
      </trkpt>
      <trkpt lat="47.33626" lon="-0.67556">
        <ele>85.69</ele>
        <time>2010-04-04T09:09:29Z</time>
      </trkpt>
      <trkpt lat="47.33628" lon="-0.67557">
        <ele>85.21</ele>
        <time>2010-04-04T09:09:30Z</time>
      </trkpt>
      <trkpt lat="47.3363" lon="-0.67558">
        <ele>85.21</ele>
        <time>2010-04-04T09:09:31Z</time>
      </trkpt>
      <trkpt lat="47.33632" lon="-0.67559">
        <ele>84.73</ele>
        <time>2010-04-04T09:09:32Z</time>
      </trkpt>
      <trkpt lat="47.33634" lon="-0.6756">
        <ele>84.73</ele>
        <time>2010-04-04T09:09:33Z</time>
      </trkpt>
      <trkpt lat="47.33636" lon="-0.67563">
        <ele>84.73</ele>
        <time>2010-04-04T09:09:34Z</time>
      </trkpt>
      <trkpt lat="47.33649" lon="-0.67592">
        <ele>85.21</ele>
        <time>2010-04-04T09:09:44Z</time>
      </trkpt>
      <trkpt lat="47.3366" lon="-0.67616">
        <ele>85.21</ele>
        <time>2010-04-04T09:09:53Z</time>
      </trkpt>
      <trkpt lat="47.33678" lon="-0.6765">
        <ele>87.14</ele>
        <time>2010-04-04T09:10:05Z</time>
      </trkpt>
      <trkpt lat="47.33703" lon="-0.6769">
        <ele>88.58</ele>
        <time>2010-04-04T09:10:18Z</time>
      </trkpt>
      <trkpt lat="47.33723" lon="-0.67721">
        <ele>89.06</ele>
        <time>2010-04-04T09:10:28Z</time>
      </trkpt>
      <trkpt lat="47.33725" lon="-0.67723">
        <ele>89.06</ele>
        <time>2010-04-04T09:10:29Z</time>
      </trkpt>
      <trkpt lat="47.33728" lon="-0.67725">
        <ele>89.06</ele>
        <time>2010-04-04T09:10:30Z</time>
      </trkpt>
      <trkpt lat="47.3373" lon="-0.67728">
        <ele>89.06</ele>
        <time>2010-04-04T09:10:31Z</time>
      </trkpt>
      <trkpt lat="47.33745" lon="-0.67759">
        <ele>89.06</ele>
        <time>2010-04-04T09:10:41Z</time>
      </trkpt>
      <trkpt lat="47.3376" lon="-0.67796">
        <ele>88.1</ele>
        <time>2010-04-04T09:10:51Z</time>
      </trkpt>
      <trkpt lat="47.33763" lon="-0.67806">
        <ele>88.1</ele>
        <time>2010-04-04T09:10:54Z</time>
      </trkpt>
      <trkpt lat="47.33765" lon="-0.67809">
        <ele>88.1</ele>
        <time>2010-04-04T09:10:55Z</time>
      </trkpt>
      <trkpt lat="47.33767" lon="-0.67812">
        <ele>88.1</ele>
        <time>2010-04-04T09:10:56Z</time>
      </trkpt>
      <trkpt lat="47.33768" lon="-0.67815">
        <ele>88.1</ele>
        <time>2010-04-04T09:10:57Z</time>
      </trkpt>
      <trkpt lat="47.3377" lon="-0.67819">
        <ele>88.1</ele>
        <time>2010-04-04T09:10:58Z</time>
      </trkpt>
      <trkpt lat="47.33787" lon="-0.67855">
        <ele>88.58</ele>
        <time>2010-04-04T09:11:09Z</time>
      </trkpt>
      <trkpt lat="47.33804" lon="-0.67891">
        <ele>88.58</ele>
        <time>2010-04-04T09:11:19Z</time>
      </trkpt>
      <trkpt lat="47.33822" lon="-0.67943">
        <ele>89.06</ele>
        <time>2010-04-04T09:11:32Z</time>
      </trkpt>
      <trkpt lat="47.33832" lon="-0.67987">
        <ele>88.1</ele>
        <time>2010-04-04T09:11:43Z</time>
      </trkpt>
      <trkpt lat="47.33848" lon="-0.68033">
        <ele>87.14</ele>
        <time>2010-04-04T09:11:55Z</time>
      </trkpt>
      <trkpt lat="47.33869" lon="-0.68068">
        <ele>86.66</ele>
        <time>2010-04-04T09:12:06Z</time>
      </trkpt>
      <trkpt lat="47.33873" lon="-0.68076">
        <ele>86.66</ele>
        <time>2010-04-04T09:12:10Z</time>
      </trkpt>
      <trkpt lat="47.33874" lon="-0.68078">
        <ele>86.66</ele>
        <time>2010-04-04T09:12:11Z</time>
      </trkpt>
      <trkpt lat="47.33875" lon="-0.68081">
        <ele>86.66</ele>
        <time>2010-04-04T09:12:12Z</time>
      </trkpt>
      <trkpt lat="47.33875" lon="-0.68083">
        <ele>86.66</ele>
        <time>2010-04-04T09:12:13Z</time>
      </trkpt>
      <trkpt lat="47.33875" lon="-0.68085">
        <ele>86.66</ele>
        <time>2010-04-04T09:12:14Z</time>
      </trkpt>
      <trkpt lat="47.33875" lon="-0.68088">
        <ele>87.14</ele>
        <time>2010-04-04T09:12:15Z</time>
      </trkpt>
      <trkpt lat="47.33874" lon="-0.6809">
        <ele>87.14</ele>
        <time>2010-04-04T09:12:16Z</time>
      </trkpt>
      <trkpt lat="47.33873" lon="-0.68093">
        <ele>87.14</ele>
        <time>2010-04-04T09:12:17Z</time>
      </trkpt>
      <trkpt lat="47.33872" lon="-0.68095">
        <ele>87.14</ele>
        <time>2010-04-04T09:12:18Z</time>
      </trkpt>
      <trkpt lat="47.3387" lon="-0.68096">
        <ele>87.14</ele>
        <time>2010-04-04T09:12:19Z</time>
      </trkpt>
      <trkpt lat="47.33869" lon="-0.68096">
        <ele>87.62</ele>
        <time>2010-04-04T09:12:20Z</time>
      </trkpt>
      <trkpt lat="47.33868" lon="-0.68096">
        <ele>87.62</ele>
        <time>2010-04-04T09:12:21Z</time>
      </trkpt>
      <trkpt lat="47.33866" lon="-0.68096">
        <ele>88.1</ele>
        <time>2010-04-04T09:12:22Z</time>
      </trkpt>
      <trkpt lat="47.33865" lon="-0.68097">
        <ele>88.1</ele>
        <time>2010-04-04T09:12:23Z</time>
      </trkpt>
      <trkpt lat="47.33864" lon="-0.68099">
        <ele>88.1</ele>
        <time>2010-04-04T09:12:24Z</time>
      </trkpt>
      <trkpt lat="47.33862" lon="-0.681">
        <ele>88.58</ele>
        <time>2010-04-04T09:12:25Z</time>
      </trkpt>
      <trkpt lat="47.33861" lon="-0.68102">
        <ele>88.58</ele>
        <time>2010-04-04T09:12:26Z</time>
      </trkpt>
      <trkpt lat="47.33859" lon="-0.68103">
        <ele>89.06</ele>
        <time>2010-04-04T09:12:27Z</time>
      </trkpt>
      <trkpt lat="47.33858" lon="-0.68105">
        <ele>89.06</ele>
        <time>2010-04-04T09:12:28Z</time>
      </trkpt>
      <trkpt lat="47.33857" lon="-0.68107">
        <ele>89.06</ele>
        <time>2010-04-04T09:12:29Z</time>
      </trkpt>
      <trkpt lat="47.33857" lon="-0.6811">
        <ele>89.06</ele>
        <time>2010-04-04T09:12:30Z</time>
      </trkpt>
      <trkpt lat="47.33857" lon="-0.68112">
        <ele>89.06</ele>
        <time>2010-04-04T09:12:31Z</time>
      </trkpt>
      <trkpt lat="47.33857" lon="-0.68115">
        <ele>89.06</ele>
        <time>2010-04-04T09:12:39Z</time>
      </trkpt>
      <trkpt lat="47.33858" lon="-0.68122">
        <ele>89.06</ele>
        <time>2010-04-04T09:13:19Z</time>
      </trkpt>
      <trkpt lat="47.33859" lon="-0.68124">
        <ele>89.06</ele>
        <time>2010-04-04T09:13:20Z</time>
      </trkpt>
      <trkpt lat="47.3386" lon="-0.68126">
        <ele>89.06</ele>
        <time>2010-04-04T09:13:21Z</time>
      </trkpt>
      <trkpt lat="47.33861" lon="-0.68127">
        <ele>89.54</ele>
        <time>2010-04-04T09:13:22Z</time>
      </trkpt>
      <trkpt lat="47.33862" lon="-0.68129">
        <ele>89.06</ele>
        <time>2010-04-04T09:13:23Z</time>
      </trkpt>
      <trkpt lat="47.33877" lon="-0.6817">
        <ele>89.06</ele>
        <time>2010-04-04T09:13:33Z</time>
      </trkpt>
      <trkpt lat="47.33882" lon="-0.68186">
        <ele>88.58</ele>
        <time>2010-04-04T09:13:37Z</time>
      </trkpt>
      <trkpt lat="47.33881" lon="-0.68189">
        <ele>88.1</ele>
        <time>2010-04-04T09:13:38Z</time>
      </trkpt>
      <trkpt lat="47.33879" lon="-0.68193">
        <ele>88.1</ele>
        <time>2010-04-04T09:13:39Z</time>
      </trkpt>
      <trkpt lat="47.33875" lon="-0.68197">
        <ele>87.62</ele>
        <time>2010-04-04T09:13:40Z</time>
      </trkpt>
      <trkpt lat="47.33872" lon="-0.682">
        <ele>87.62</ele>
        <time>2010-04-04T09:13:41Z</time>
      </trkpt>
      <trkpt lat="47.33869" lon="-0.68203">
        <ele>87.62</ele>
        <time>2010-04-04T09:13:42Z</time>
      </trkpt>
      <trkpt lat="47.33865" lon="-0.68206">
        <ele>87.62</ele>
        <time>2010-04-04T09:13:43Z</time>
      </trkpt>
      <trkpt lat="47.3386" lon="-0.6821">
        <ele>87.14</ele>
        <time>2010-04-04T09:13:44Z</time>
      </trkpt>
      <trkpt lat="47.3385" lon="-0.68217">
        <ele>86.66</ele>
        <time>2010-04-04T09:13:46Z</time>
      </trkpt>
      <trkpt lat="47.33845" lon="-0.68222">
        <ele>86.18</ele>
        <time>2010-04-04T09:13:47Z</time>
      </trkpt>
      <trkpt lat="47.3384" lon="-0.68226">
        <ele>85.69</ele>
        <time>2010-04-04T09:13:48Z</time>
      </trkpt>
      <trkpt lat="47.33775" lon="-0.68268">
        <ele>81.37</ele>
        <time>2010-04-04T09:13:58Z</time>
      </trkpt>
      <trkpt lat="47.33731" lon="-0.68302">
        <ele>78.97</ele>
        <time>2010-04-04T09:14:04Z</time>
      </trkpt>
      <trkpt lat="47.33724" lon="-0.68309">
        <ele>78.48</ele>
        <time>2010-04-04T09:14:05Z</time>
      </trkpt>
      <trkpt lat="47.33717" lon="-0.68315">
        <ele>78.48</ele>
        <time>2010-04-04T09:14:06Z</time>
      </trkpt>
      <trkpt lat="47.33663" lon="-0.68363">
        <ele>76.08</ele>
        <time>2010-04-04T09:14:14Z</time>
      </trkpt>
      <trkpt lat="47.33611" lon="-0.68402">
        <ele>73.2</ele>
        <time>2010-04-04T09:14:23Z</time>
      </trkpt>
      <trkpt lat="47.33598" lon="-0.68416">
        <ele>72.24</ele>
        <time>2010-04-04T09:14:28Z</time>
      </trkpt>
      <trkpt lat="47.33595" lon="-0.68418">
        <ele>71.76</ele>
        <time>2010-04-04T09:14:29Z</time>
      </trkpt>
      <trkpt lat="47.33591" lon="-0.68417">
        <ele>71.76</ele>
        <time>2010-04-04T09:14:30Z</time>
      </trkpt>
      <trkpt lat="47.33554" lon="-0.68399">
        <ele>74.64</ele>
        <time>2010-04-04T09:14:41Z</time>
      </trkpt>
      <trkpt lat="47.33529" lon="-0.68391">
        <ele>75.6</ele>
        <time>2010-04-04T09:14:51Z</time>
      </trkpt>
      <trkpt lat="47.33522" lon="-0.6839">
        <ele>76.08</ele>
        <time>2010-04-04T09:14:59Z</time>
      </trkpt>
      <trkpt lat="47.33521" lon="-0.68389">
        <ele>76.08</ele>
        <time>2010-04-04T09:15:07Z</time>
      </trkpt>
      <trkpt lat="47.33521" lon="-0.68387">
        <ele>76.08</ele>
        <time>2010-04-04T09:15:08Z</time>
      </trkpt>
      <trkpt lat="47.33521" lon="-0.68385">
        <ele>76.08</ele>
        <time>2010-04-04T09:15:09Z</time>
      </trkpt>
      <trkpt lat="47.33523" lon="-0.68385">
        <ele>76.56</ele>
        <time>2010-04-04T09:15:16Z</time>
      </trkpt>
      <trkpt lat="47.33537" lon="-0.6839">
        <ele>76.56</ele>
        <time>2010-04-04T09:15:55Z</time>
      </trkpt>
      <trkpt lat="47.33542" lon="-0.6839">
        <ele>76.08</ele>
        <time>2010-04-04T09:15:56Z</time>
      </trkpt>
      <trkpt lat="47.33597" lon="-0.68415">
        <ele>73.2</ele>
        <time>2010-04-04T09:16:06Z</time>
      </trkpt>
      <trkpt lat="47.33631" lon="-0.68443">
        <ele>70.79</ele>
        <time>2010-04-04T09:16:12Z</time>
      </trkpt>
      <trkpt lat="47.33633" lon="-0.68448">
        <ele>70.31</ele>
        <time>2010-04-04T09:16:13Z</time>
      </trkpt>
      <trkpt lat="47.33633" lon="-0.68452">
        <ele>70.31</ele>
        <time>2010-04-04T09:16:14Z</time>
      </trkpt>
      <trkpt lat="47.33632" lon="-0.68457">
        <ele>69.83</ele>
        <time>2010-04-04T09:16:15Z</time>
      </trkpt>
      <trkpt lat="47.33629" lon="-0.68461">
        <ele>69.83</ele>
        <time>2010-04-04T09:16:16Z</time>
      </trkpt>
      <trkpt lat="47.33625" lon="-0.68465">
        <ele>69.35</ele>
        <time>2010-04-04T09:16:17Z</time>
      </trkpt>
      <trkpt lat="47.33621" lon="-0.68469">
        <ele>68.87</ele>
        <time>2010-04-04T09:16:18Z</time>
      </trkpt>
      <trkpt lat="47.33616" lon="-0.68473">
        <ele>68.87</ele>
        <time>2010-04-04T09:16:19Z</time>
      </trkpt>
      <trkpt lat="47.33611" lon="-0.68477">
        <ele>68.39</ele>
        <time>2010-04-04T09:16:20Z</time>
      </trkpt>
      <trkpt lat="47.33607" lon="-0.6848">
        <ele>67.91</ele>
        <time>2010-04-04T09:16:21Z</time>
      </trkpt>
      <trkpt lat="47.33586" lon="-0.68499">
        <ele>65.51</ele>
        <time>2010-04-04T09:16:26Z</time>
      </trkpt>
      <trkpt lat="47.33543" lon="-0.6855">
        <ele>59.26</ele>
        <time>2010-04-04T09:16:34Z</time>
      </trkpt>
      <trkpt lat="47.33527" lon="-0.68566">
        <ele>57.34</ele>
        <time>2010-04-04T09:16:37Z</time>
      </trkpt>
      <trkpt lat="47.33511" lon="-0.68577">
        <ele>54.93</ele>
        <time>2010-04-04T09:16:41Z</time>
      </trkpt>
      <trkpt lat="47.33472" lon="-0.68598">
        <ele>47.24</ele>
        <time>2010-04-04T09:16:48Z</time>
      </trkpt>
      <trkpt lat="47.33445" lon="-0.68607">
        <ele>41.95</ele>
        <time>2010-04-04T09:16:53Z</time>
      </trkpt>
      <trkpt lat="47.33421" lon="-0.68621">
        <ele>38.59</ele>
        <time>2010-04-04T09:16:57Z</time>
      </trkpt>
      <trkpt lat="47.33381" lon="-0.68656">
        <ele>31.38</ele>
        <time>2010-04-04T09:17:04Z</time>
      </trkpt>
      <trkpt lat="47.33376" lon="-0.68663">
        <ele>30.42</ele>
        <time>2010-04-04T09:17:05Z</time>
      </trkpt>
      <trkpt lat="47.3335" lon="-0.68693">
        <ele>26.09</ele>
        <time>2010-04-04T09:17:10Z</time>
      </trkpt>
      <trkpt lat="47.33322" lon="-0.68722">
        <ele>20.32</ele>
        <time>2010-04-04T09:17:15Z</time>
      </trkpt>
      <trkpt lat="47.33312" lon="-0.68732">
        <ele>18.4</ele>
        <time>2010-04-04T09:17:17Z</time>
      </trkpt>
      <trkpt lat="47.33306" lon="-0.68737">
        <ele>16.96</ele>
        <time>2010-04-04T09:17:18Z</time>
      </trkpt>
      <trkpt lat="47.33301" lon="-0.68743">
        <ele>16</ele>
        <time>2010-04-04T09:17:19Z</time>
      </trkpt>
      <trkpt lat="47.33295" lon="-0.68748">
        <ele>15.04</ele>
        <time>2010-04-04T09:17:20Z</time>
      </trkpt>
      <trkpt lat="47.33288" lon="-0.68755">
        <ele>14.08</ele>
        <time>2010-04-04T09:17:21Z</time>
      </trkpt>
      <trkpt lat="47.33282" lon="-0.68762">
        <ele>13.12</ele>
        <time>2010-04-04T09:17:22Z</time>
      </trkpt>
      <trkpt lat="47.33277" lon="-0.68769">
        <ele>12.15</ele>
        <time>2010-04-04T09:17:23Z</time>
      </trkpt>
      <trkpt lat="47.33266" lon="-0.6878">
        <ele>10.71</ele>
        <time>2010-04-04T09:17:25Z</time>
      </trkpt>
      <trkpt lat="47.33261" lon="-0.68784">
        <ele>10.23</ele>
        <time>2010-04-04T09:17:26Z</time>
      </trkpt>
      <trkpt lat="47.3323" lon="-0.68824">
        <ele>7.35</ele>
        <time>2010-04-04T09:17:32Z</time>
      </trkpt>
      <trkpt lat="47.33204" lon="-0.68856">
        <ele>5.91</ele>
        <time>2010-04-04T09:17:36Z</time>
      </trkpt>
      <trkpt lat="47.33199" lon="-0.68861">
        <ele>5.42</ele>
        <time>2010-04-04T09:17:37Z</time>
      </trkpt>
      <trkpt lat="47.33193" lon="-0.68864">
        <ele>5.42</ele>
        <time>2010-04-04T09:17:38Z</time>
      </trkpt>
      <trkpt lat="47.33189" lon="-0.68866">
        <ele>5.42</ele>
        <time>2010-04-04T09:17:39Z</time>
      </trkpt>
      <trkpt lat="47.33186" lon="-0.68869">
        <ele>4.94</ele>
        <time>2010-04-04T09:17:40Z</time>
      </trkpt>
      <trkpt lat="47.33184" lon="-0.68872">
        <ele>4.94</ele>
        <time>2010-04-04T09:17:41Z</time>
      </trkpt>
      <trkpt lat="47.33181" lon="-0.68874">
        <ele>4.46</ele>
        <time>2010-04-04T09:17:42Z</time>
      </trkpt>
      <trkpt lat="47.33178" lon="-0.68876">
        <ele>4.46</ele>
        <time>2010-04-04T09:17:43Z</time>
      </trkpt>
      <trkpt lat="47.33174" lon="-0.68877">
        <ele>4.46</ele>
        <time>2010-04-04T09:17:44Z</time>
      </trkpt>
      <trkpt lat="47.33171" lon="-0.68877">
        <ele>4.46</ele>
        <time>2010-04-04T09:17:45Z</time>
      </trkpt>
      <trkpt lat="47.33169" lon="-0.68877">
        <ele>4.46</ele>
        <time>2010-04-04T09:17:46Z</time>
      </trkpt>
      <trkpt lat="47.33139" lon="-0.6888">
        <ele>7.35</ele>
        <time>2010-04-04T09:17:55Z</time>
      </trkpt>
      <trkpt lat="47.33111" lon="-0.68898">
        <ele>9.75</ele>
        <time>2010-04-04T09:18:02Z</time>
      </trkpt>
      <trkpt lat="47.33093" lon="-0.68911">
        <ele>9.27</ele>
        <time>2010-04-04T09:18:05Z</time>
      </trkpt>
      <trkpt lat="47.33086" lon="-0.68914">
        <ele>8.79</ele>
        <time>2010-04-04T09:18:06Z</time>
      </trkpt>
      <trkpt lat="47.3308" lon="-0.68915">
        <ele>8.79</ele>
        <time>2010-04-04T09:18:07Z</time>
      </trkpt>
      <trkpt lat="47.33074" lon="-0.68915">
        <ele>8.79</ele>
        <time>2010-04-04T09:18:08Z</time>
      </trkpt>
      <trkpt lat="47.33069" lon="-0.68914">
        <ele>9.27</ele>
        <time>2010-04-04T09:18:09Z</time>
      </trkpt>
      <trkpt lat="47.33063" lon="-0.68912">
        <ele>9.75</ele>
        <time>2010-04-04T09:18:10Z</time>
      </trkpt>
      <trkpt lat="47.33059" lon="-0.6891">
        <ele>10.71</ele>
        <time>2010-04-04T09:18:11Z</time>
      </trkpt>
      <trkpt lat="47.33054" lon="-0.68906">
        <ele>11.19</ele>
        <time>2010-04-04T09:18:12Z</time>
      </trkpt>
      <trkpt lat="47.33051" lon="-0.68901">
        <ele>11.19</ele>
        <time>2010-04-04T09:18:13Z</time>
      </trkpt>
      <trkpt lat="47.33048" lon="-0.68896">
        <ele>11.67</ele>
        <time>2010-04-04T09:18:14Z</time>
      </trkpt>
      <trkpt lat="47.33029" lon="-0.68872">
        <ele>14.08</ele>
        <time>2010-04-04T09:18:22Z</time>
      </trkpt>
      <trkpt lat="47.33024" lon="-0.68868">
        <ele>15.52</ele>
        <time>2010-04-04T09:18:25Z</time>
      </trkpt>
      <trkpt lat="47.33021" lon="-0.68866">
        <ele>16</ele>
        <time>2010-04-04T09:18:27Z</time>
      </trkpt>
      <trkpt lat="47.3302" lon="-0.68864">
        <ele>16</ele>
        <time>2010-04-04T09:18:28Z</time>
      </trkpt>
      <trkpt lat="47.33019" lon="-0.68862">
        <ele>16.48</ele>
        <time>2010-04-04T09:18:36Z</time>
      </trkpt>
      <trkpt lat="47.33019" lon="-0.68862">
        <ele>16.48</ele>
        <time>2010-04-04T09:19:14Z</time>
      </trkpt>
      <trkpt lat="47.33017" lon="-0.68861">
        <ele>16.96</ele>
        <time>2010-04-04T09:19:25Z</time>
      </trkpt>
      <trkpt lat="47.33016" lon="-0.6886">
        <ele>17.44</ele>
        <time>2010-04-04T09:19:26Z</time>
      </trkpt>
      <trkpt lat="47.33014" lon="-0.68858">
        <ele>17.44</ele>
        <time>2010-04-04T09:19:27Z</time>
      </trkpt>
      <trkpt lat="47.33012" lon="-0.68857">
        <ele>17.92</ele>
        <time>2010-04-04T09:19:28Z</time>
      </trkpt>
      <trkpt lat="47.3301" lon="-0.68854">
        <ele>17.92</ele>
        <time>2010-04-04T09:19:29Z</time>
      </trkpt>
      <trkpt lat="47.33008" lon="-0.68852">
        <ele>17.92</ele>
        <time>2010-04-04T09:19:30Z</time>
      </trkpt>
      <trkpt lat="47.33006" lon="-0.6885">
        <ele>17.92</ele>
        <time>2010-04-04T09:19:31Z</time>
      </trkpt>
      <trkpt lat="47.32978" lon="-0.68829">
        <ele>18.88</ele>
        <time>2010-04-04T09:19:39Z</time>
      </trkpt>
      <trkpt lat="47.32964" lon="-0.68818">
        <ele>18.88</ele>
        <time>2010-04-04T09:19:43Z</time>
      </trkpt>
      <trkpt lat="47.32957" lon="-0.68811">
        <ele>19.36</ele>
        <time>2010-04-04T09:19:45Z</time>
      </trkpt>
      <trkpt lat="47.32954" lon="-0.68808">
        <ele>19.36</ele>
        <time>2010-04-04T09:19:46Z</time>
      </trkpt>
      <trkpt lat="47.32941" lon="-0.68795">
        <ele>19.84</ele>
        <time>2010-04-04T09:19:50Z</time>
      </trkpt>
      <trkpt lat="47.32939" lon="-0.6879">
        <ele>19.84</ele>
        <time>2010-04-04T09:19:51Z</time>
      </trkpt>
      <trkpt lat="47.32939" lon="-0.68786">
        <ele>20.32</ele>
        <time>2010-04-04T09:19:52Z</time>
      </trkpt>
      <trkpt lat="47.32939" lon="-0.68783">
        <ele>20.81</ele>
        <time>2010-04-04T09:19:53Z</time>
      </trkpt>
      <trkpt lat="47.32941" lon="-0.68779">
        <ele>21.29</ele>
        <time>2010-04-04T09:19:54Z</time>
      </trkpt>
      <trkpt lat="47.32942" lon="-0.68776">
        <ele>21.77</ele>
        <time>2010-04-04T09:19:55Z</time>
      </trkpt>
      <trkpt lat="47.32943" lon="-0.68772">
        <ele>22.25</ele>
        <time>2010-04-04T09:19:56Z</time>
      </trkpt>
      <trkpt lat="47.32944" lon="-0.6877">
        <ele>22.73</ele>
        <time>2010-04-04T09:19:57Z</time>
      </trkpt>
      <trkpt lat="47.32944" lon="-0.68767">
        <ele>23.21</ele>
        <time>2010-04-04T09:19:58Z</time>
      </trkpt>
      <trkpt lat="47.32945" lon="-0.68764">
        <ele>23.69</ele>
        <time>2010-04-04T09:19:59Z</time>
      </trkpt>
      <trkpt lat="47.32945" lon="-0.68761">
        <ele>24.17</ele>
        <time>2010-04-04T09:20:00Z</time>
      </trkpt>
      <trkpt lat="47.32946" lon="-0.68758">
        <ele>24.17</ele>
        <time>2010-04-04T09:20:01Z</time>
      </trkpt>
      <trkpt lat="47.32948" lon="-0.68755">
        <ele>24.65</ele>
        <time>2010-04-04T09:20:02Z</time>
      </trkpt>
      <trkpt lat="47.32953" lon="-0.6875">
        <ele>25.13</ele>
        <time>2010-04-04T09:20:05Z</time>
      </trkpt>
      <trkpt lat="47.32954" lon="-0.68748">
        <ele>25.61</ele>
        <time>2010-04-04T09:20:06Z</time>
      </trkpt>
      <trkpt lat="47.32956" lon="-0.68746">
        <ele>25.61</ele>
        <time>2010-04-04T09:20:07Z</time>
      </trkpt>
      <trkpt lat="47.32967" lon="-0.68725">
        <ele>27.05</ele>
        <time>2010-04-04T09:20:17Z</time>
      </trkpt>
      <trkpt lat="47.32972" lon="-0.68713">
        <ele>28.5</ele>
        <time>2010-04-04T09:20:23Z</time>
      </trkpt>
      <trkpt lat="47.32977" lon="-0.68702">
        <ele>28.98</ele>
        <time>2010-04-04T09:20:29Z</time>
      </trkpt>
      <trkpt lat="47.32981" lon="-0.68696">
        <ele>29.94</ele>
        <time>2010-04-04T09:20:33Z</time>
      </trkpt>
      <trkpt lat="47.32989" lon="-0.68685">
        <ele>31.86</ele>
        <time>2010-04-04T09:20:41Z</time>
      </trkpt>
      <trkpt lat="47.3299" lon="-0.68677">
        <ele>32.34</ele>
        <time>2010-04-04T09:20:45Z</time>
      </trkpt>
      <trkpt lat="47.32983" lon="-0.68664">
        <ele>33.3</ele>
        <time>2010-04-04T09:20:56Z</time>
      </trkpt>
      <trkpt lat="47.32973" lon="-0.68647">
        <ele>36.19</ele>
        <time>2010-04-04T09:21:10Z</time>
      </trkpt>
      <trkpt lat="47.32967" lon="-0.68637">
        <ele>37.63</ele>
        <time>2010-04-04T09:21:18Z</time>
      </trkpt>
      <trkpt lat="47.32974" lon="-0.68624">
        <ele>39.55</ele>
        <time>2010-04-04T09:21:29Z</time>
      </trkpt>
      <trkpt lat="47.32986" lon="-0.68611">
        <ele>41.95</ele>
        <time>2010-04-04T09:21:44Z</time>
      </trkpt>
      <trkpt lat="47.32985" lon="-0.68609">
        <ele>42.44</ele>
        <time>2010-04-04T09:21:52Z</time>
      </trkpt>
      <trkpt lat="47.32985" lon="-0.68609">
        <ele>42.44</ele>
        <time>2010-04-04T09:22:09Z</time>
      </trkpt>
      <trkpt lat="47.32985" lon="-0.68609">
        <ele>42.44</ele>
        <time>2010-04-04T09:22:14Z</time>
      </trkpt>
      <trkpt lat="47.32981" lon="-0.68595">
        <ele>42.92</ele>
        <time>2010-04-04T09:22:21Z</time>
      </trkpt>
      <trkpt lat="47.3298" lon="-0.6859">
        <ele>43.4</ele>
        <time>2010-04-04T09:22:23Z</time>
      </trkpt>
      <trkpt lat="47.32975" lon="-0.68571">
        <ele>44.84</ele>
        <time>2010-04-04T09:22:31Z</time>
      </trkpt>
      <trkpt lat="47.32972" lon="-0.68558">
        <ele>45.8</ele>
        <time>2010-04-04T09:22:36Z</time>
      </trkpt>
      <trkpt lat="47.32964" lon="-0.68525">
        <ele>47.72</ele>
        <time>2010-04-04T09:22:48Z</time>
      </trkpt>
      <trkpt lat="47.32952" lon="-0.68494">
        <ele>48.2</ele>
        <time>2010-04-04T09:22:59Z</time>
      </trkpt>
      <trkpt lat="47.32937" lon="-0.6846">
        <ele>47.72</ele>
        <time>2010-04-04T09:23:09Z</time>
      </trkpt>
      <trkpt lat="47.32927" lon="-0.68439">
        <ele>47.24</ele>
        <time>2010-04-04T09:23:18Z</time>
      </trkpt>
      <trkpt lat="47.3292" lon="-0.68424">
        <ele>46.76</ele>
        <time>2010-04-04T09:23:25Z</time>
      </trkpt>
      <trkpt lat="47.32917" lon="-0.68419">
        <ele>46.76</ele>
        <time>2010-04-04T09:23:28Z</time>
      </trkpt>
      <trkpt lat="47.3291" lon="-0.68418">
        <ele>45.8</ele>
        <time>2010-04-04T09:23:35Z</time>
      </trkpt>
      <trkpt lat="47.3291" lon="-0.68417">
        <ele>45.8</ele>
        <time>2010-04-04T09:23:41Z</time>
      </trkpt>
      <trkpt lat="47.32901" lon="-0.68401">
        <ele>44.84</ele>
        <time>2010-04-04T09:23:47Z</time>
      </trkpt>
      <trkpt lat="47.32888" lon="-0.68353">
        <ele>44.36</ele>
        <time>2010-04-04T09:23:58Z</time>
      </trkpt>
      <trkpt lat="47.32885" lon="-0.68333">
        <ele>43.4</ele>
        <time>2010-04-04T09:24:05Z</time>
      </trkpt>
      <trkpt lat="47.32882" lon="-0.68323">
        <ele>44.84</ele>
        <time>2010-04-04T09:24:11Z</time>
      </trkpt>
      <trkpt lat="47.32875" lon="-0.68308">
        <ele>44.36</ele>
        <time>2010-04-04T09:24:18Z</time>
      </trkpt>
      <trkpt lat="47.32872" lon="-0.68289">
        <ele>45.8</ele>
        <time>2010-04-04T09:24:25Z</time>
      </trkpt>
      <trkpt lat="47.32867" lon="-0.68266">
        <ele>46.76</ele>
        <time>2010-04-04T09:24:33Z</time>
      </trkpt>
      <trkpt lat="47.32866" lon="-0.68259">
        <ele>47.24</ele>
        <time>2010-04-04T09:24:35Z</time>
      </trkpt>
      <trkpt lat="47.32862" lon="-0.68241">
        <ele>46.28</ele>
        <time>2010-04-04T09:24:41Z</time>
      </trkpt>
      <trkpt lat="47.32855" lon="-0.68216">
        <ele>45.8</ele>
        <time>2010-04-04T09:24:51Z</time>
      </trkpt>
      <trkpt lat="47.32839" lon="-0.68215">
        <ele>44.84</ele>
        <time>2010-04-04T09:24:59Z</time>
      </trkpt>
      <trkpt lat="47.32838" lon="-0.68213">
        <ele>44.36</ele>
        <time>2010-04-04T09:25:00Z</time>
      </trkpt>
      <trkpt lat="47.3283" lon="-0.68186">
        <ele>43.4</ele>
        <time>2010-04-04T09:25:09Z</time>
      </trkpt>
      <trkpt lat="47.32827" lon="-0.68149">
        <ele>43.88</ele>
        <time>2010-04-04T09:25:19Z</time>
      </trkpt>
      <trkpt lat="47.32823" lon="-0.68123">
        <ele>42.92</ele>
        <time>2010-04-04T09:25:27Z</time>
      </trkpt>
      <trkpt lat="47.32824" lon="-0.68121">
        <ele>42.92</ele>
        <time>2010-04-04T09:25:28Z</time>
      </trkpt>
      <trkpt lat="47.32822" lon="-0.68107">
        <ele>42.92</ele>
        <time>2010-04-04T09:25:33Z</time>
      </trkpt>
      <trkpt lat="47.32819" lon="-0.68068">
        <ele>41.47</ele>
        <time>2010-04-04T09:25:44Z</time>
      </trkpt>
      <trkpt lat="47.32814" lon="-0.68033">
        <ele>40.51</ele>
        <time>2010-04-04T09:25:53Z</time>
      </trkpt>
      <trkpt lat="47.32803" lon="-0.67994">
        <ele>39.55</ele>
        <time>2010-04-04T09:26:02Z</time>
      </trkpt>
      <trkpt lat="47.32795" lon="-0.67994">
        <ele>39.55</ele>
        <time>2010-04-04T09:26:04Z</time>
      </trkpt>
      <trkpt lat="47.32784" lon="-0.67983">
        <ele>38.11</ele>
        <time>2010-04-04T09:26:08Z</time>
      </trkpt>
      <trkpt lat="47.32776" lon="-0.67926">
        <ele>36.19</ele>
        <time>2010-04-04T09:26:20Z</time>
      </trkpt>
      <trkpt lat="47.32787" lon="-0.67894">
        <ele>35.71</ele>
        <time>2010-04-04T09:26:28Z</time>
      </trkpt>
      <trkpt lat="47.32797" lon="-0.67856">
        <ele>34.26</ele>
        <time>2010-04-04T09:26:38Z</time>
      </trkpt>
      <trkpt lat="47.32812" lon="-0.67815">
        <ele>34.74</ele>
        <time>2010-04-04T09:26:49Z</time>
      </trkpt>
      <trkpt lat="47.32818" lon="-0.67815">
        <ele>34.74</ele>
        <time>2010-04-04T09:26:56Z</time>
      </trkpt>
      <trkpt lat="47.32815" lon="-0.67812">
        <ele>34.74</ele>
        <time>2010-04-04T09:27:18Z</time>
      </trkpt>
      <trkpt lat="47.32813" lon="-0.67808">
        <ele>33.78</ele>
        <time>2010-04-04T09:27:25Z</time>
      </trkpt>
      <trkpt lat="47.32813" lon="-0.67807">
        <ele>33.78</ele>
        <time>2010-04-04T09:27:28Z</time>
      </trkpt>
      <trkpt lat="47.32808" lon="-0.678">
        <ele>31.86</ele>
        <time>2010-04-04T09:27:35Z</time>
      </trkpt>
      <trkpt lat="47.32808" lon="-0.67798">
        <ele>30.9</ele>
        <time>2010-04-04T09:27:37Z</time>
      </trkpt>
      <trkpt lat="47.32809" lon="-0.67795">
        <ele>30.42</ele>
        <time>2010-04-04T09:27:50Z</time>
      </trkpt>
      <trkpt lat="47.32812" lon="-0.67789">
        <ele>29.46</ele>
        <time>2010-04-04T09:27:56Z</time>
      </trkpt>
      <trkpt lat="47.32813" lon="-0.6778">
        <ele>27.53</ele>
        <time>2010-04-04T09:28:03Z</time>
      </trkpt>
      <trkpt lat="47.32811" lon="-0.67769">
        <ele>25.13</ele>
        <time>2010-04-04T09:28:10Z</time>
      </trkpt>
      <trkpt lat="47.32813" lon="-0.67765">
        <ele>23.21</ele>
        <time>2010-04-04T09:28:13Z</time>
      </trkpt>
      <trkpt lat="47.3282" lon="-0.67751">
        <ele>20.32</ele>
        <time>2010-04-04T09:28:20Z</time>
      </trkpt>
      <trkpt lat="47.32826" lon="-0.67746">
        <ele>16.48</ele>
        <time>2010-04-04T09:28:28Z</time>
      </trkpt>
      <trkpt lat="47.32828" lon="-0.67744">
        <ele>15.52</ele>
        <time>2010-04-04T09:28:32Z</time>
      </trkpt>
      <trkpt lat="47.32822" lon="-0.67725">
        <ele>16.48</ele>
        <time>2010-04-04T09:28:43Z</time>
      </trkpt>
      <trkpt lat="47.32822" lon="-0.67714">
        <ele>19.36</ele>
        <time>2010-04-04T09:28:52Z</time>
      </trkpt>
      <trkpt lat="47.32826" lon="-0.67698">
        <ele>19.84</ele>
        <time>2010-04-04T09:29:09Z</time>
      </trkpt>
      <trkpt lat="47.32832" lon="-0.67666">
        <ele>19.84</ele>
        <time>2010-04-04T09:29:17Z</time>
      </trkpt>
      <trkpt lat="47.32839" lon="-0.67624">
        <ele>19.84</ele>
        <time>2010-04-04T09:29:28Z</time>
      </trkpt>
      <trkpt lat="47.32844" lon="-0.67593">
        <ele>19.36</ele>
        <time>2010-04-04T09:29:36Z</time>
      </trkpt>
      <trkpt lat="47.32847" lon="-0.67558">
        <ele>19.84</ele>
        <time>2010-04-04T09:29:45Z</time>
      </trkpt>
      <trkpt lat="47.32851" lon="-0.67526">
        <ele>21.77</ele>
        <time>2010-04-04T09:29:54Z</time>
      </trkpt>
      <trkpt lat="47.32852" lon="-0.675">
        <ele>23.69</ele>
        <time>2010-04-04T09:30:01Z</time>
      </trkpt>
      <trkpt lat="47.32853" lon="-0.67455">
        <ele>24.17</ele>
        <time>2010-04-04T09:30:09Z</time>
      </trkpt>
      <trkpt lat="47.32853" lon="-0.67438">
        <ele>24.65</ele>
        <time>2010-04-04T09:30:12Z</time>
      </trkpt>
      <trkpt lat="47.32853" lon="-0.67432">
        <ele>24.65</ele>
        <time>2010-04-04T09:30:13Z</time>
      </trkpt>
      <trkpt lat="47.32854" lon="-0.67427">
        <ele>25.13</ele>
        <time>2010-04-04T09:30:14Z</time>
      </trkpt>
      <trkpt lat="47.32854" lon="-0.67421">
        <ele>25.13</ele>
        <time>2010-04-04T09:30:15Z</time>
      </trkpt>
      <trkpt lat="47.32853" lon="-0.67415">
        <ele>25.13</ele>
        <time>2010-04-04T09:30:16Z</time>
      </trkpt>
      <trkpt lat="47.32852" lon="-0.67409">
        <ele>25.13</ele>
        <time>2010-04-04T09:30:17Z</time>
      </trkpt>
      <trkpt lat="47.32851" lon="-0.67395">
        <ele>25.13</ele>
        <time>2010-04-04T09:30:19Z</time>
      </trkpt>
      <trkpt lat="47.3285" lon="-0.67345">
        <ele>24.17</ele>
        <time>2010-04-04T09:30:28Z</time>
      </trkpt>
      <trkpt lat="47.32849" lon="-0.6734">
        <ele>24.17</ele>
        <time>2010-04-04T09:30:29Z</time>
      </trkpt>
      <trkpt lat="47.32848" lon="-0.67333">
        <ele>23.69</ele>
        <time>2010-04-04T09:30:30Z</time>
      </trkpt>
      <trkpt lat="47.32847" lon="-0.67326">
        <ele>23.69</ele>
        <time>2010-04-04T09:30:31Z</time>
      </trkpt>
      <trkpt lat="47.32846" lon="-0.67319">
        <ele>23.69</ele>
        <time>2010-04-04T09:30:32Z</time>
      </trkpt>
      <trkpt lat="47.32845" lon="-0.67311">
        <ele>23.69</ele>
        <time>2010-04-04T09:30:33Z</time>
      </trkpt>
      <trkpt lat="47.32845" lon="-0.67303">
        <ele>23.69</ele>
        <time>2010-04-04T09:30:34Z</time>
      </trkpt>
      <trkpt lat="47.32844" lon="-0.67287">
        <ele>23.21</ele>
        <time>2010-04-04T09:30:36Z</time>
      </trkpt>
      <trkpt lat="47.32843" lon="-0.6728">
        <ele>23.21</ele>
        <time>2010-04-04T09:30:37Z</time>
      </trkpt>
      <trkpt lat="47.3284" lon="-0.67259">
        <ele>23.21</ele>
        <time>2010-04-04T09:30:40Z</time>
      </trkpt>
      <trkpt lat="47.32839" lon="-0.67253">
        <ele>23.21</ele>
        <time>2010-04-04T09:30:41Z</time>
      </trkpt>
      <trkpt lat="47.32827" lon="-0.67212">
        <ele>22.73</ele>
        <time>2010-04-04T09:30:47Z</time>
      </trkpt>
      <trkpt lat="47.32819" lon="-0.67185">
        <ele>21.77</ele>
        <time>2010-04-04T09:30:52Z</time>
      </trkpt>
      <trkpt lat="47.32816" lon="-0.67183">
        <ele>21.77</ele>
        <time>2010-04-04T09:30:53Z</time>
      </trkpt>
      <trkpt lat="47.32813" lon="-0.67182">
        <ele>22.25</ele>
        <time>2010-04-04T09:30:54Z</time>
      </trkpt>
      <trkpt lat="47.3281" lon="-0.67177">
        <ele>21.77</ele>
        <time>2010-04-04T09:30:56Z</time>
      </trkpt>
      <trkpt lat="47.32809" lon="-0.67173">
        <ele>21.29</ele>
        <time>2010-04-04T09:30:57Z</time>
      </trkpt>
      <trkpt lat="47.32809" lon="-0.67168">
        <ele>20.81</ele>
        <time>2010-04-04T09:30:58Z</time>
      </trkpt>
      <trkpt lat="47.32809" lon="-0.67162">
        <ele>20.81</ele>
        <time>2010-04-04T09:30:59Z</time>
      </trkpt>
      <trkpt lat="47.3281" lon="-0.67157">
        <ele>20.32</ele>
        <time>2010-04-04T09:31:00Z</time>
      </trkpt>
      <trkpt lat="47.3281" lon="-0.67152">
        <ele>20.32</ele>
        <time>2010-04-04T09:31:01Z</time>
      </trkpt>
      <trkpt lat="47.32809" lon="-0.67147">
        <ele>19.84</ele>
        <time>2010-04-04T09:31:02Z</time>
      </trkpt>
      <trkpt lat="47.32807" lon="-0.67145">
        <ele>19.84</ele>
        <time>2010-04-04T09:31:03Z</time>
      </trkpt>
      <trkpt lat="47.32798" lon="-0.67142">
        <ele>19.36</ele>
        <time>2010-04-04T09:31:08Z</time>
      </trkpt>
      <trkpt lat="47.32787" lon="-0.67151">
        <ele>17.92</ele>
        <time>2010-04-04T09:31:14Z</time>
      </trkpt>
      <trkpt lat="47.32766" lon="-0.67138">
        <ele>16.96</ele>
        <time>2010-04-04T09:31:22Z</time>
      </trkpt>
      <trkpt lat="47.32764" lon="-0.67139">
        <ele>16.96</ele>
        <time>2010-04-04T09:31:23Z</time>
      </trkpt>
      <trkpt lat="47.32753" lon="-0.67143">
        <ele>15.52</ele>
        <time>2010-04-04T09:31:27Z</time>
      </trkpt>
      <trkpt lat="47.32736" lon="-0.67128">
        <ele>15.04</ele>
        <time>2010-04-04T09:31:33Z</time>
      </trkpt>
      <trkpt lat="47.32718" lon="-0.67096">
        <ele>14.56</ele>
        <time>2010-04-04T09:31:41Z</time>
      </trkpt>
      <trkpt lat="47.32689" lon="-0.67059">
        <ele>14.08</ele>
        <time>2010-04-04T09:31:51Z</time>
      </trkpt>
      <trkpt lat="47.32653" lon="-0.67044">
        <ele>14.08</ele>
        <time>2010-04-04T09:32:00Z</time>
      </trkpt>
      <trkpt lat="47.3262" lon="-0.67021">
        <ele>14.56</ele>
        <time>2010-04-04T09:32:10Z</time>
      </trkpt>
      <trkpt lat="47.32593" lon="-0.66984">
        <ele>14.08</ele>
        <time>2010-04-04T09:32:20Z</time>
      </trkpt>
      <trkpt lat="47.32571" lon="-0.66955">
        <ele>14.08</ele>
        <time>2010-04-04T09:32:29Z</time>
      </trkpt>
      <trkpt lat="47.32559" lon="-0.66925">
        <ele>14.56</ele>
        <time>2010-04-04T09:32:37Z</time>
      </trkpt>
      <trkpt lat="47.32539" lon="-0.66899">
        <ele>15.52</ele>
        <time>2010-04-04T09:32:46Z</time>
      </trkpt>
      <trkpt lat="47.32519" lon="-0.66865">
        <ele>16</ele>
        <time>2010-04-04T09:32:56Z</time>
      </trkpt>
      <trkpt lat="47.32503" lon="-0.66816">
        <ele>15.52</ele>
        <time>2010-04-04T09:33:09Z</time>
      </trkpt>
      <trkpt lat="47.32478" lon="-0.66798">
        <ele>15.04</ele>
        <time>2010-04-04T09:33:18Z</time>
      </trkpt>
      <trkpt lat="47.32461" lon="-0.66774">
        <ele>15.04</ele>
        <time>2010-04-04T09:33:27Z</time>
      </trkpt>
      <trkpt lat="47.32449" lon="-0.66742">
        <ele>14.08</ele>
        <time>2010-04-04T09:33:36Z</time>
      </trkpt>
      <trkpt lat="47.32438" lon="-0.66709">
        <ele>13.6</ele>
        <time>2010-04-04T09:33:45Z</time>
      </trkpt>
      <trkpt lat="47.32417" lon="-0.66684">
        <ele>13.12</ele>
        <time>2010-04-04T09:33:54Z</time>
      </trkpt>
      <trkpt lat="47.32403" lon="-0.66657">
        <ele>12.63</ele>
        <time>2010-04-04T09:34:02Z</time>
      </trkpt>
      <trkpt lat="47.32411" lon="-0.6663">
        <ele>13.12</ele>
        <time>2010-04-04T09:34:09Z</time>
      </trkpt>
      <trkpt lat="47.32429" lon="-0.66593">
        <ele>14.08</ele>
        <time>2010-04-04T09:34:19Z</time>
      </trkpt>
      <trkpt lat="47.32445" lon="-0.66569">
        <ele>13.6</ele>
        <time>2010-04-04T09:34:27Z</time>
      </trkpt>
      <trkpt lat="47.32461" lon="-0.66557">
        <ele>13.12</ele>
        <time>2010-04-04T09:34:33Z</time>
      </trkpt>
      <trkpt lat="47.32473" lon="-0.66548">
        <ele>14.08</ele>
        <time>2010-04-04T09:34:40Z</time>
      </trkpt>
      <trkpt lat="47.32479" lon="-0.66535">
        <ele>16.48</ele>
        <time>2010-04-04T09:34:46Z</time>
      </trkpt>
      <trkpt lat="47.32479" lon="-0.6653">
        <ele>16.96</ele>
        <time>2010-04-04T09:34:48Z</time>
      </trkpt>
      <trkpt lat="47.32471" lon="-0.66492">
        <ele>17.92</ele>
        <time>2010-04-04T09:34:59Z</time>
      </trkpt>
      <trkpt lat="47.32461" lon="-0.66452">
        <ele>17.92</ele>
        <time>2010-04-04T09:35:09Z</time>
      </trkpt>
      <trkpt lat="47.32454" lon="-0.66404">
        <ele>19.36</ele>
        <time>2010-04-04T09:35:20Z</time>
      </trkpt>
      <trkpt lat="47.32425" lon="-0.66394">
        <ele>19.84</ele>
        <time>2010-04-04T09:35:31Z</time>
      </trkpt>
      <trkpt lat="47.32381" lon="-0.66384">
        <ele>18.88</ele>
        <time>2010-04-04T09:35:43Z</time>
      </trkpt>
      <trkpt lat="47.32364" lon="-0.6638">
        <ele>17.92</ele>
        <time>2010-04-04T09:35:47Z</time>
      </trkpt>
      <trkpt lat="47.3236" lon="-0.66379">
        <ele>17.92</ele>
        <time>2010-04-04T09:35:48Z</time>
      </trkpt>
      <trkpt lat="47.32326" lon="-0.66367">
        <ele>17.92</ele>
        <time>2010-04-04T09:35:58Z</time>
      </trkpt>
      <trkpt lat="47.32314" lon="-0.66332">
        <ele>18.88</ele>
        <time>2010-04-04T09:36:06Z</time>
      </trkpt>
      <trkpt lat="47.32297" lon="-0.66286">
        <ele>21.29</ele>
        <time>2010-04-04T09:36:17Z</time>
      </trkpt>
      <trkpt lat="47.32283" lon="-0.66248">
        <ele>21.77</ele>
        <time>2010-04-04T09:36:28Z</time>
      </trkpt>
      <trkpt lat="47.32282" lon="-0.66247">
        <ele>21.77</ele>
        <time>2010-04-04T09:36:50Z</time>
      </trkpt>
      <trkpt lat="47.32284" lon="-0.66246">
        <ele>21.77</ele>
        <time>2010-04-04T09:36:54Z</time>
      </trkpt>
      <trkpt lat="47.32285" lon="-0.66247">
        <ele>21.77</ele>
        <time>2010-04-04T09:36:55Z</time>
      </trkpt>
      <trkpt lat="47.32286" lon="-0.66249">
        <ele>21.77</ele>
        <time>2010-04-04T09:36:56Z</time>
      </trkpt>
      <trkpt lat="47.32289" lon="-0.66255">
        <ele>22.25</ele>
        <time>2010-04-04T09:36:59Z</time>
      </trkpt>
      <trkpt lat="47.32289" lon="-0.66261">
        <ele>22.25</ele>
        <time>2010-04-04T09:37:01Z</time>
      </trkpt>
      <trkpt lat="47.32289" lon="-0.66263">
        <ele>22.25</ele>
        <time>2010-04-04T09:37:02Z</time>
      </trkpt>
      <trkpt lat="47.32291" lon="-0.66266">
        <ele>21.77</ele>
        <time>2010-04-04T09:37:03Z</time>
      </trkpt>
      <trkpt lat="47.32296" lon="-0.66272">
        <ele>21.29</ele>
        <time>2010-04-04T09:37:07Z</time>
      </trkpt>
      <trkpt lat="47.32297" lon="-0.66273">
        <ele>21.29</ele>
        <time>2010-04-04T09:37:08Z</time>
      </trkpt>
      <trkpt lat="47.32298" lon="-0.66275">
        <ele>21.29</ele>
        <time>2010-04-04T09:37:09Z</time>
      </trkpt>
      <trkpt lat="47.32298" lon="-0.66277">
        <ele>21.29</ele>
        <time>2010-04-04T09:37:10Z</time>
      </trkpt>
      <trkpt lat="47.32295" lon="-0.66279">
        <ele>21.29</ele>
        <time>2010-04-04T09:37:13Z</time>
      </trkpt>
      <trkpt lat="47.3229" lon="-0.66268">
        <ele>20.81</ele>
        <time>2010-04-04T09:37:17Z</time>
      </trkpt>
      <trkpt lat="47.32286" lon="-0.66255">
        <ele>21.77</ele>
        <time>2010-04-04T09:37:21Z</time>
      </trkpt>
      <trkpt lat="47.32269" lon="-0.66211">
        <ele>21.77</ele>
        <time>2010-04-04T09:37:32Z</time>
      </trkpt>
      <trkpt lat="47.32247" lon="-0.66166">
        <ele>22.25</ele>
        <time>2010-04-04T09:37:43Z</time>
      </trkpt>
      <trkpt lat="47.32231" lon="-0.661">
        <ele>21.29</ele>
        <time>2010-04-04T09:37:53Z</time>
      </trkpt>
      <trkpt lat="47.32216" lon="-0.6602">
        <ele>20.81</ele>
        <time>2010-04-04T09:38:04Z</time>
      </trkpt>
      <trkpt lat="47.32205" lon="-0.65926">
        <ele>22.25</ele>
        <time>2010-04-04T09:38:18Z</time>
      </trkpt>
      <trkpt lat="47.32187" lon="-0.6586">
        <ele>22.73</ele>
        <time>2010-04-04T09:38:31Z</time>
      </trkpt>
      <trkpt lat="47.32173" lon="-0.65839">
        <ele>23.21</ele>
        <time>2010-04-04T09:38:37Z</time>
      </trkpt>
      <trkpt lat="47.3217" lon="-0.65837">
        <ele>23.21</ele>
        <time>2010-04-04T09:38:38Z</time>
      </trkpt>
      <trkpt lat="47.32168" lon="-0.65833">
        <ele>23.21</ele>
        <time>2010-04-04T09:38:39Z</time>
      </trkpt>
      <trkpt lat="47.32145" lon="-0.65801">
        <ele>22.25</ele>
        <time>2010-04-04T09:38:48Z</time>
      </trkpt>
      <trkpt lat="47.32108" lon="-0.65762">
        <ele>22.25</ele>
        <time>2010-04-04T09:39:00Z</time>
      </trkpt>
      <trkpt lat="47.32105" lon="-0.65764">
        <ele>22.73</ele>
        <time>2010-04-04T09:39:01Z</time>
      </trkpt>
      <trkpt lat="47.32103" lon="-0.65767">
        <ele>23.21</ele>
        <time>2010-04-04T09:39:02Z</time>
      </trkpt>
      <trkpt lat="47.3208" lon="-0.65788">
        <ele>23.69</ele>
        <time>2010-04-04T09:39:11Z</time>
      </trkpt>
      <trkpt lat="47.32066" lon="-0.65803">
        <ele>24.65</ele>
        <time>2010-04-04T09:39:18Z</time>
      </trkpt>
      <trkpt lat="47.32066" lon="-0.65804">
        <ele>24.65</ele>
        <time>2010-04-04T09:39:19Z</time>
      </trkpt>
      <trkpt lat="47.32065" lon="-0.65806">
        <ele>24.65</ele>
        <time>2010-04-04T09:39:31Z</time>
      </trkpt>
      <trkpt lat="47.32065" lon="-0.65807">
        <ele>25.13</ele>
        <time>2010-04-04T09:39:56Z</time>
      </trkpt>
      <trkpt lat="47.32063" lon="-0.65808">
        <ele>25.13</ele>
        <time>2010-04-04T09:39:57Z</time>
      </trkpt>
      <trkpt lat="47.32061" lon="-0.65809">
        <ele>25.13</ele>
        <time>2010-04-04T09:39:58Z</time>
      </trkpt>
      <trkpt lat="47.3206" lon="-0.65809">
        <ele>25.13</ele>
        <time>2010-04-04T09:39:59Z</time>
      </trkpt>
      <trkpt lat="47.32058" lon="-0.65809">
        <ele>25.13</ele>
        <time>2010-04-04T09:40:00Z</time>
      </trkpt>
      <trkpt lat="47.32056" lon="-0.65809">
        <ele>25.13</ele>
        <time>2010-04-04T09:40:01Z</time>
      </trkpt>
      <trkpt lat="47.32055" lon="-0.6581">
        <ele>25.13</ele>
        <time>2010-04-04T09:40:02Z</time>
      </trkpt>
      <trkpt lat="47.32053" lon="-0.6581">
        <ele>25.13</ele>
        <time>2010-04-04T09:40:03Z</time>
      </trkpt>
      <trkpt lat="47.32051" lon="-0.6581">
        <ele>25.13</ele>
        <time>2010-04-04T09:40:04Z</time>
      </trkpt>
      <trkpt lat="47.32047" lon="-0.6581">
        <ele>25.13</ele>
        <time>2010-04-04T09:40:06Z</time>
      </trkpt>
      <trkpt lat="47.32045" lon="-0.65812">
        <ele>25.61</ele>
        <time>2010-04-04T09:40:07Z</time>
      </trkpt>
      <trkpt lat="47.32018" lon="-0.65835">
        <ele>28.5</ele>
        <time>2010-04-04T09:40:21Z</time>
      </trkpt>
      <trkpt lat="47.31998" lon="-0.6585">
        <ele>30.42</ele>
        <time>2010-04-04T09:40:31Z</time>
      </trkpt>
      <trkpt lat="47.31981" lon="-0.65862">
        <ele>32.34</ele>
        <time>2010-04-04T09:40:39Z</time>
      </trkpt>
      <trkpt lat="47.31962" lon="-0.65875">
        <ele>34.26</ele>
        <time>2010-04-04T09:40:48Z</time>
      </trkpt>
      <trkpt lat="47.3194" lon="-0.65888">
        <ele>35.71</ele>
        <time>2010-04-04T09:40:59Z</time>
      </trkpt>
      <trkpt lat="47.3192" lon="-0.65898">
        <ele>37.15</ele>
        <time>2010-04-04T09:41:09Z</time>
      </trkpt>
      <trkpt lat="47.31912" lon="-0.65898">
        <ele>37.63</ele>
        <time>2010-04-04T09:41:19Z</time>
      </trkpt>
      <trkpt lat="47.31912" lon="-0.65898">
        <ele>37.63</ele>
        <time>2010-04-04T09:41:30Z</time>
      </trkpt>
      <trkpt lat="47.3191" lon="-0.65899">
        <ele>37.63</ele>
        <time>2010-04-04T09:41:31Z</time>
      </trkpt>
      <trkpt lat="47.31908" lon="-0.65899">
        <ele>37.63</ele>
        <time>2010-04-04T09:41:32Z</time>
      </trkpt>
      <trkpt lat="47.31905" lon="-0.65899">
        <ele>37.63</ele>
        <time>2010-04-04T09:41:33Z</time>
      </trkpt>
      <trkpt lat="47.31903" lon="-0.65899">
        <ele>37.63</ele>
        <time>2010-04-04T09:41:34Z</time>
      </trkpt>
      <trkpt lat="47.31901" lon="-0.65898">
        <ele>37.63</ele>
        <time>2010-04-04T09:41:35Z</time>
      </trkpt>
      <trkpt lat="47.31875" lon="-0.65908">
        <ele>37.63</ele>
        <time>2010-04-04T09:41:45Z</time>
      </trkpt>
      <trkpt lat="47.31848" lon="-0.65919">
        <ele>38.59</ele>
        <time>2010-04-04T09:41:57Z</time>
      </trkpt>
      <trkpt lat="47.31828" lon="-0.65929">
        <ele>39.07</ele>
        <time>2010-04-04T09:42:07Z</time>
      </trkpt>
      <trkpt lat="47.31825" lon="-0.6593">
        <ele>39.55</ele>
        <time>2010-04-04T09:42:09Z</time>
      </trkpt>
      <trkpt lat="47.31804" lon="-0.65939">
        <ele>41.95</ele>
        <time>2010-04-04T09:42:22Z</time>
      </trkpt>
      <trkpt lat="47.31788" lon="-0.65948">
        <ele>42.92</ele>
        <time>2010-04-04T09:42:32Z</time>
      </trkpt>
      <trkpt lat="47.31769" lon="-0.65955">
        <ele>44.84</ele>
        <time>2010-04-04T09:42:44Z</time>
      </trkpt>
      <trkpt lat="47.31754" lon="-0.65959">
        <ele>44.84</ele>
        <time>2010-04-04T09:42:54Z</time>
      </trkpt>
      <trkpt lat="47.31735" lon="-0.65963">
        <ele>45.32</ele>
        <time>2010-04-04T09:43:04Z</time>
      </trkpt>
      <trkpt lat="47.31714" lon="-0.65969">
        <ele>45.8</ele>
        <time>2010-04-04T09:43:14Z</time>
      </trkpt>
      <trkpt lat="47.31685" lon="-0.65963">
        <ele>44.84</ele>
        <time>2010-04-04T09:43:26Z</time>
      </trkpt>
      <trkpt lat="47.31665" lon="-0.65947">
        <ele>46.76</ele>
        <time>2010-04-04T09:43:36Z</time>
      </trkpt>
      <trkpt lat="47.31649" lon="-0.65917">
        <ele>48.2</ele>
        <time>2010-04-04T09:43:47Z</time>
      </trkpt>
      <trkpt lat="47.3163" lon="-0.65883">
        <ele>49.65</ele>
        <time>2010-04-04T09:44:00Z</time>
      </trkpt>
      <trkpt lat="47.31607" lon="-0.65864">
        <ele>50.61</ele>
        <time>2010-04-04T09:44:11Z</time>
      </trkpt>
      <trkpt lat="47.31575" lon="-0.6587">
        <ele>52.05</ele>
        <time>2010-04-04T09:44:24Z</time>
      </trkpt>
      <trkpt lat="47.31549" lon="-0.65878">
        <ele>53.01</ele>
        <time>2010-04-04T09:44:34Z</time>
      </trkpt>
      <trkpt lat="47.31529" lon="-0.65865">
        <ele>53.49</ele>
        <time>2010-04-04T09:44:43Z</time>
      </trkpt>
      <trkpt lat="47.31524" lon="-0.65847">
        <ele>53.01</ele>
        <time>2010-04-04T09:44:48Z</time>
      </trkpt>
      <trkpt lat="47.31523" lon="-0.65845">
        <ele>53.01</ele>
        <time>2010-04-04T09:44:49Z</time>
      </trkpt>
      <trkpt lat="47.31522" lon="-0.65843">
        <ele>52.53</ele>
        <time>2010-04-04T09:44:50Z</time>
      </trkpt>
      <trkpt lat="47.31521" lon="-0.65842">
        <ele>52.53</ele>
        <time>2010-04-04T09:45:00Z</time>
      </trkpt>
    </trkseg>
  </trk>
</gpx>